Observation data for Fort Lancaster on 03/12/2018      Previous  Date  Next       Current Mesonet Observations  Soil Data  Daily Summary Page  Observations in Plain Language
KLA1 120500Z 02002KT 10/M08 A3031 RMK A01 T00971083  RH  027%=      5-min Rain = 0
KLA1 120501Z 02002KT 10/M08 A3031 RMK A01 T00971083  RH  027%=      5-min Rain = 0
KLA1 120502Z 02002KT 10/M08 A3031 RMK A01 T00971084  RH  027%=      5-min Rain = 0
KLA1 120503Z 02002KT 10/M08 A3031 RMK A01 T00981084  RH  027%=      5-min Rain = 0
KLA1 120504Z 02002KT 10/M08 A3031 RMK A01 T00981084  RH  027%=      5-min Rain = 0
KLA1 120505Z 02002KT 10/M08 A3031 RMK A01 T00991084  RH  027%=      5-min Rain = 0
KLA1 120506Z 01001KT 10/M08 A3031 RMK A01 T00991084  RH  027%=      5-min Rain = 0
KLA1 120507Z 36000KT 10/M08 A3031 RMK A01 T00991084  RH  027%=      5-min Rain = 0
KLA1 120508Z 03001KT 10/M08 A3031 RMK A01 T00991084  RH  027%=      5-min Rain = 0
KLA1 120509Z 04001KT 10/M08 A3031 RMK A01 T00991084  RH  027%=      5-min Rain = 0
KLA1 120510Z 05001KT 10/M08 A3031 RMK A01 T00991084  RH  027%=      5-min Rain = 0
KLA1 120511Z 05000KT 10/M08 A3031 RMK A01 T00991082  RH  027%=      5-min Rain = 0
KLA1 120512Z 00000KT 10/M08 A3031 RMK A01 T00951081  RH  028%=      5-min Rain = 0
KLA1 120513Z 24001KT 09/M08 A3031 RMK A01 T00921081  RH  029%=      5-min Rain = 0
KLA1 120514Z 24000KT 09/M08 A3031 RMK A01 T00871080  RH  030%=      5-min Rain = 0
KLA1 120515Z 24000KT 08/M08 A3031 RMK A01 T00841080  RH  030%=      5-min Rain = 0
KLA1 120516Z 29000KT 08/M08 A3031 RMK A01 T00821080  RH  031%=      5-min Rain = 0
KLA1 120517Z 30000KT 08/M08 A3031 RMK A01 T00801080  RH  031%=      5-min Rain = 0
KLA1 120518Z 32000KT 08/M08 A3031 RMK A01 T00781081  RH  031%=      5-min Rain = 0
KLA1 120519Z 33001KT 08/M08 A3031 RMK A01 T00771081  RH  032%=      5-min Rain = 0
KLA1 120520Z 34000KT 08/M08 A3031 RMK A01 T00761080  RH  032%=      5-min Rain = 0
KLA1 120521Z 00000KT 08/M08 A3031 RMK A01 T00761080  RH  032%=      5-min Rain = 0
KLA1 120522Z 00000KT 08/M08 A3031 RMK A01 T00751080  RH  032%=      5-min Rain = 0
KLA1 120523Z 00000KT 08/M08 A3031 RMK A01 T00751080  RH  032%=      5-min Rain = 0
KLA1 120524Z 26001KT 07/M08 A3031 RMK A01 T00741080  RH  033%=      5-min Rain = 0
KLA1 120525Z 25001KT 07/M08 A3031 RMK A01 T00741080  RH  033%=      5-min Rain = 0
KLA1 120526Z 25001KT 07/M08 A3031 RMK A01 T00731080  RH  033%=      5-min Rain = 0
KLA1 120527Z 26001KT 07/M08 A3031 RMK A01 T00731080  RH  033%=      5-min Rain = 0
KLA1 120528Z 27002KT 07/M08 A3031 RMK A01 T00721080  RH  033%=      5-min Rain = 0
KLA1 120529Z 27002KT 07/M08 A3031 RMK A01 T00721080  RH  033%=      5-min Rain = 0
KLA1 120530Z 26002KT 07/M08 A3031 RMK A01 T00711080  RH  033%=      5-min Rain = 0
KLA1 120531Z 27002KT 07/M08 A3032 RMK A01 T00701080  RH  033%=      5-min Rain = 0
KLA1 120532Z 27002KT 07/M08 A3032 RMK A01 T00701080  RH  034%=      5-min Rain = 0
KLA1 120533Z 28001KT 07/M08 A3032 RMK A01 T00691081  RH  034%=      5-min Rain = 0
KLA1 120534Z 26001KT 07/M08 A3031 RMK A01 T00691081  RH  034%=      5-min Rain = 0
KLA1 120535Z 27001KT 07/M08 A3031 RMK A01 T00681082  RH  033%=      5-min Rain = 0
KLA1 120536Z 27001KT 07/M08 A3031 RMK A01 T00661083  RH  034%=      5-min Rain = 0
KLA1 120537Z 27001KT 07/M08 A3031 RMK A01 T00651082  RH  034%=      5-min Rain = 0
KLA1 120538Z 27002KT 07/M08 A3031 RMK A01 T00651082  RH  034%=      5-min Rain = 0
KLA1 120539Z 27002KT 07/M08 A3031 RMK A01 T00651081  RH  034%=      5-min Rain = 0
KLA1 120540Z 28002KT 07/M08 A3031 RMK A01 T00651081  RH  035%=      5-min Rain = 0
KLA1 120541Z 28002KT 07/M08 A3031 RMK A01 T00651080  RH  035%=      5-min Rain = 0
KLA1 120542Z 29002KT 07/M08 A3031 RMK A01 T00651080  RH  035%=      5-min Rain = 0
KLA1 120543Z 30001KT 07/M08 A3031 RMK A01 T00651079  RH  035%=      5-min Rain = 0
KLA1 120544Z 34001KT 07/M08 A3031 RMK A01 T00651080  RH  035%=      5-min Rain = 0
KLA1 120545Z 04001KT 06/M08 A3031 RMK A01 T00641080  RH  035%=      5-min Rain = 0
KLA1 120546Z 05001KT 06/M08 A3031 RMK A01 T00621080  RH  035%=      5-min Rain = 0
KLA1 120547Z 05002KT 06/M08 A3031 RMK A01 T00611080  RH  036%=      5-min Rain = 0
KLA1 120548Z 05002KT 06/M08 A3031 RMK A01 T00601080  RH  036%=      5-min Rain = 0
KLA1 120549Z 05002KT 06/M08 A3031 RMK A01 T00601080  RH  036%=      5-min Rain = 0
KLA1 120550Z 06002KT 06/M08 A3031 RMK A01 T00611080  RH  036%=      5-min Rain = 0
KLA1 120551Z 06002KT 06/M08 A3031 RMK A01 T00621079  RH  036%=      5-min Rain = 0
KLA1 120552Z 04002KT 06/M08 A3031 RMK A01 T00631079  RH  035%=      5-min Rain = 0
KLA1 120553Z 05001KT 07/M08 A3031 RMK A01 T00651078  RH  035%=      5-min Rain = 0
KLA1 120554Z 00000KT 07/M08 A3031 RMK A01 T00681078  RH  035%=      5-min Rain = 0
KLA1 120555Z 00000KT 07/M08 A3031 RMK A01 T00691078  RH  034%=      5-min Rain = 0
KLA1 120556Z 00000KT 07/M08 A3031 RMK A01 T00691078  RH  034%=      5-min Rain = 0
KLA1 120557Z 13000KT 07/M08 A3031 RMK A01 T00711078  RH  034%=      5-min Rain = 0
KLA1 120558Z 16001KT 07/M08 A3031 RMK A01 T00721079  RH  033%=      5-min Rain = 0
KLA1 120559Z 17002KT 07/M08 A3031 RMK A01 T00741079  RH  033%=      5-min Rain = 0
KLA1 120600Z 17002KT 08/M08 A3031 RMK A01 T00751078  RH  033%=      5-min Rain = 0
KLA1 120601Z 17001KT 08/M08 A3031 RMK A01 T00761076  RH  033%=      5-min Rain = 0
KLA1 120602Z 19001KT 08/M08 A3031 RMK A01 T00761076  RH  033%=      5-min Rain = 0
KLA1 120603Z 26001KT 08/M08 A3031 RMK A01 T00761076  RH  033%=      5-min Rain = 0
KLA1 120604Z 27002KT 08/M08 A3031 RMK A01 T00761076  RH  033%=      5-min Rain = 0
KLA1 120605Z 29003KT 08/M08 A3031 RMK A01 T00761077  RH  033%=      5-min Rain = 0
KLA1 120606Z 29002KT 08/M08 A3031 RMK A01 T00771077  RH  033%=      5-min Rain = 0
KLA1 120607Z 29001KT 08/M08 A3031 RMK A01 T00771077  RH  033%=      5-min Rain = 0
KLA1 120608Z 28001KT 08/M08 A3031 RMK A01 T00761077  RH  033%=      5-min Rain = 0
KLA1 120609Z 29001KT 08/M08 A3031 RMK A01 T00761078  RH  033%=      5-min Rain = 0
KLA1 120610Z 31002KT 08/M08 A3031 RMK A01 T00761077  RH  033%=      5-min Rain = 0
KLA1 120611Z 29002KT 08/M08 A3031 RMK A01 T00761076  RH  033%=      5-min Rain = 0
KLA1 120612Z 28002KT 08/M08 A3031 RMK A01 T00761076  RH  033%=      5-min Rain = 0
KLA1 120613Z 30002KT 08/M08 A3031 RMK A01 T00761076  RH  033%=      5-min Rain = 0
KLA1 120614Z 29001KT 08/M07 A3031 RMK A01 T00761074  RH  034%=      5-min Rain = 0
KLA1 120615Z 29000KT 08/M07 A3031 RMK A01 T00751074  RH  034%=      5-min Rain = 0
KLA1 120616Z 29002KT 08/M07 A3031 RMK A01 T00751074  RH  034%=      5-min Rain = 0
KLA1 120617Z 29002KT 07/M08 A3031 RMK A01 T00741075  RH  034%=      5-min Rain = 0
KLA1 120618Z 29002KT 07/M08 A3031 RMK A01 T00741075  RH  034%=      5-min Rain = 0
KLA1 120619Z 30002KT 07/M08 A3031 RMK A01 T00741076  RH  034%=      5-min Rain = 0
KLA1 120620Z 30003KT 07/M08 A3031 RMK A01 T00741076  RH  034%=      5-min Rain = 0
KLA1 120621Z 30002KT 07/M08 A3031 RMK A01 T00741076  RH  034%=      5-min Rain = 0
KLA1 120622Z 32001KT 07/M08 A3031 RMK A01 T00741075  RH  034%=      5-min Rain = 0
KLA1 120623Z 35001KT 07/M08 A303 RMK A01 T00741075  RH  034%=      5-min Rain = 0
KLA1 120624Z 01001KT 07/M08 A303 RMK A01 T00741076  RH  034%=      5-min Rain = 0
KLA1 120625Z 04001KT 07/M08 A303 RMK A01 T00741075  RH  034%=      5-min Rain = 0
KLA1 120626Z 05001KT 07/M08 A3031 RMK A01 T00741076  RH  034%=      5-min Rain = 0
KLA1 120627Z 04000KT 07/M08 A3031 RMK A01 T00741076  RH  034%=      5-min Rain = 0
KLA1 120628Z 36001KT 08/M08 A3031 RMK A01 T00761078  RH  033%=      5-min Rain = 0
KLA1 120629Z 36001KT 08/M08 A3031 RMK A01 T00771076  RH  033%=      5-min Rain = 0
KLA1 120630Z 30001KT 08/M08 A3031 RMK A01 T00781076  RH  033%=      5-min Rain = 0
KLA1 120631Z 31003KT 08/M08 A3031 RMK A01 T00781078  RH  032%=      5-min Rain = 0
KLA1 120632Z 33004KT 08/M08 A3031 RMK A01 T00791076  RH  033%=      5-min Rain = 0
KLA1 120633Z 32004KT 08/M08 A3031 RMK A01 T00781075  RH  033%=      5-min Rain = 0
KLA1 120634Z 32004KT 08/M08 A3031 RMK A01 T00781076  RH  033%=      5-min Rain = 0
KLA1 120635Z 33006KT 08/M08 A3031 RMK A01 T00781077  RH  033%=      5-min Rain = 0
KLA1 120636Z 33006KT 08/M08 A3031 RMK A01 T00801078  RH  032%=      5-min Rain = 0
KLA1 120637Z 33006KT 09/M08 A3031 RMK A01 T00861078  RH  030%=      5-min Rain = 0
KLA1 120638Z 33006KT 09/M08 A3031 RMK A01 T00901079  RH  029%=      5-min Rain = 0
KLA1 120639Z 33006KT 09/M08 A3031 RMK A01 T00931079  RH  029%=      5-min Rain = 0
KLA1 120640Z 34006KT 09/M08 A3031 RMK A01 T00941080  RH  029%=      5-min Rain = 0
KLA1 120641Z 34007KT 10/M08 A3031 RMK A01 T00951079  RH  029%=      5-min Rain = 0
KLA1 120642Z 34006KT 09/M08 A3031 RMK A01 T00941080  RH  028%=      5-min Rain = 0
KLA1 120643Z 34007KT 09/M08 A3031 RMK A01 T00941080  RH  028%=      5-min Rain = 0
KLA1 120644Z 35006KT 09/M08 A3031 RMK A01 T00931080  RH  029%=      5-min Rain = 0
KLA1 120645Z 36005KT 09/M08 A3031 RMK A01 T00931079  RH  029%=      5-min Rain = 0
KLA1 120646Z 02004KT 09/M08 A3031 RMK A01 T00901079  RH  029%=      5-min Rain = 0
KLA1 120647Z 02005KT 09/M08 A3031 RMK A01 T00871079  RH  030%=      5-min Rain = 0
KLA1 120648Z 01004KT 09/M08 A3031 RMK A01 T00861079  RH  030%=      5-min Rain = 0
KLA1 120649Z 01004KT 09/M08 A3031 RMK A01 T00851079  RH  030%=      5-min Rain = 0
KLA1 120650Z 00004KT 09/M08 A3031 RMK A01 T00851079  RH  031%=      5-min Rain = 0
KLA1 120651Z 35004KT 08/M08 A3031 RMK A01 T00841079  RH  031%=      5-min Rain = 0
KLA1 120652Z 35004KT 09/M08 A3031 RMK A01 T00851079  RH  030%=      5-min Rain = 0
KLA1 120653Z 36004KT 09/M08 A3031 RMK A01 T00861079  RH  030%=      5-min Rain = 0
KLA1 120654Z 00003KT 09/M08 A3031 RMK A01 T00861079  RH  030%=      5-min Rain = 0
KLA1 120655Z 00003KT 09/M08 A3031 RMK A01 T00871079  RH  030%=      5-min Rain = 0
KLA1 120656Z 01002KT 09/M08 A3031 RMK A01 T00871079  RH  030%=      5-min Rain = 0
KLA1 120657Z 01002KT 09/M08 A3031 RMK A01 T00871079  RH  030%=      5-min Rain = 0
KLA1 120658Z 00002KT 09/M08 A303 RMK A01 T00881079  RH  030%=      5-min Rain = 0
KLA1 120659Z 36002KT 09/M08 A303 RMK A01 T00881078  RH  030%=      5-min Rain = 0
KLA1 120700Z 00002KT 09/M08 A303 RMK A01 T00881079  RH  030%=      5-min Rain = 0
KLA1 120701Z 36002KT 09/M08 A303 RMK A01 T00881078  RH  030%=      5-min Rain = 0
KLA1 120702Z 35001KT 09/M08 A303 RMK A01 T00891078  RH  030%=      5-min Rain = 0
KLA1 120703Z 34002KT 09/M08 A3031 RMK A01 T00891078  RH  030%=      5-min Rain = 0
KLA1 120704Z 31002KT 09/M08 A3031 RMK A01 T00901078  RH  030%=      5-min Rain = 0
KLA1 120705Z 29004KT 09/M08 A3031 RMK A01 T00911078  RH  030%=      5-min Rain = 0
KLA1 120706Z 29005KT 09/M08 A3031 RMK A01 T00881077  RH  030%=      5-min Rain = 0
KLA1 120707Z 31004KT 08/M08 A3031 RMK A01 T00821077  RH  032%=      5-min Rain = 0
KLA1 120708Z 30004KT 08/M08 A3031 RMK A01 T00781077  RH  032%=      5-min Rain = 0
KLA1 120709Z 30005KT 08/M08 A3031 RMK A01 T00751077  RH  033%=      5-min Rain = 0
KLA1 120710Z 29005KT 07/M08 A3031 RMK A01 T00731077  RH  034%=      5-min Rain = 0
KLA1 120711Z 30005KT 07/M08 A3031 RMK A01 T00721077  RH  034%=      5-min Rain = 0
KLA1 120712Z 30005KT 07/M08 A3031 RMK A01 T00711077  RH  034%=      5-min Rain = 0
KLA1 120713Z 31005KT 07/M08 A3031 RMK A01 T00701077  RH  034%=      5-min Rain = 0
KLA1 120714Z 32005KT 07/M08 A3031 RMK A01 T00691077  RH  034%=      5-min Rain = 0
KLA1 120715Z 32005KT 07/M08 A3031 RMK A01 T00691076  RH  035%=      5-min Rain = 0
KLA1 120716Z 32004KT 07/M08 A3031 RMK A01 T00691076  RH  035%=      5-min Rain = 0
KLA1 120717Z 30004KT 07/M08 A3031 RMK A01 T00691076  RH  035%=      5-min Rain = 0
KLA1 120718Z 30004KT 07/M08 A3031 RMK A01 T00681077  RH  035%=      5-min Rain = 0
KLA1 120719Z 31005KT 07/M08 A3031 RMK A01 T00661076  RH  035%=      5-min Rain = 0
KLA1 120720Z 29005KT 07/M08 A3031 RMK A01 T00651077  RH  036%=      5-min Rain = 0
KLA1 120721Z 28005KT 07/M08 A3031 RMK A01 T00651076  RH  036%=      5-min Rain = 0
KLA1 120722Z 29004KT 07/M08 A3031 RMK A01 T00651076  RH  036%=      5-min Rain = 0
KLA1 120723Z 30003KT 06/M08 A3032 RMK A01 T00641075  RH  036%=      5-min Rain = 0
KLA1 120724Z 30003KT 06/M08 A3032 RMK A01 T00641075  RH  036%=      5-min Rain = 0
KLA1 120725Z 30003KT 06/M08 A3032 RMK A01 T00641076  RH  036%=      5-min Rain = 0
KLA1 120726Z 30002KT 06/M08 A3032 RMK A01 T00641076  RH  036%=      5-min Rain = 0
KLA1 120727Z 28002KT 07/M08 A3032 RMK A01 T00651076  RH  036%=      5-min Rain = 0
KLA1 120728Z 29002KT 07/M08 A3032 RMK A01 T00661076  RH  035%=      5-min Rain = 0
KLA1 120729Z 29003KT 07/M08 A3032 RMK A01 T00671076  RH  035%=      5-min Rain = 0
KLA1 120730Z 29003KT 07/M08 A3032 RMK A01 T00681076  RH  035%=      5-min Rain = 0
KLA1 120731Z 31003KT 07/M08 A3032 RMK A01 T00691076  RH  035%=      5-min Rain = 0
KLA1 120732Z 30003KT 07/M08 A3032 RMK A01 T00711077  RH  034%=      5-min Rain = 0
KLA1 120733Z 30003KT 07/M08 A3032 RMK A01 T00741076  RH  034%=      5-min Rain = 0
KLA1 120734Z 30003KT 08/M08 A3032 RMK A01 T00761076  RH  033%=      5-min Rain = 0
KLA1 120735Z 30002KT 08/M08 A3032 RMK A01 T00781076  RH  032%=      5-min Rain = 0
KLA1 120736Z 34001KT 08/M08 A3032 RMK A01 T00801075  RH  032%=      5-min Rain = 0
KLA1 120737Z 03001KT 08/M07 A3032 RMK A01 T00801074  RH  033%=      5-min Rain = 0
KLA1 120738Z 03000KT 08/M07 A3032 RMK A01 T00801074  RH  033%=      5-min Rain = 0
KLA1 120739Z 01001KT 08/M07 A3032 RMK A01 T00801074  RH  033%=      5-min Rain = 0
KLA1 120740Z 34001KT 08/M07 A3032 RMK A01 T00801074  RH  033%=      5-min Rain = 0
KLA1 120741Z 33001KT 08/M08 A3032 RMK A01 T00801075  RH  033%=      5-min Rain = 0
KLA1 120742Z 31000KT 08/M08 A3032 RMK A01 T00801075  RH  033%=      5-min Rain = 0
KLA1 120743Z 26001KT 08/M08 A3032 RMK A01 T00801076  RH  032%=      5-min Rain = 0
KLA1 120744Z 26001KT 08/M08 A3032 RMK A01 T00811075  RH  032%=      5-min Rain = 0
KLA1 120745Z 26001KT 08/M07 A3032 RMK A01 T00811073  RH  033%=      5-min Rain = 0
KLA1 120746Z 27001KT 08/M07 A3032 RMK A01 T00811073  RH  033%=      5-min Rain = 0
KLA1 120747Z 28001KT 08/M07 A3032 RMK A01 T00811073  RH  033%=      5-min Rain = 0
KLA1 120748Z 34001KT 08/M07 A3032 RMK A01 T00811074  RH  033%=      5-min Rain = 0
KLA1 120749Z 34001KT 08/M08 A3032 RMK A01 T00821076  RH  032%=      5-min Rain = 0
KLA1 120750Z 28000KT 08/M08 A3032 RMK A01 T00841076  RH  031%=      5-min Rain = 0
KLA1 120751Z 28000KT 09/M08 A3032 RMK A01 T00851078  RH  031%=      5-min Rain = 0
KLA1 120752Z 28000KT 09/M08 A3032 RMK A01 T00861078  RH  031%=      5-min Rain = 0
KLA1 120753Z 00000KT 09/M07 A3033 RMK A01 T00861073  RH  032%=      5-min Rain = 0
KLA1 120754Z 27001KT 09/M08 A3033 RMK A01 T00861076  RH  031%=      5-min Rain = 0
KLA1 120755Z 26003KT 09/M07 A3033 RMK A01 T00851072  RH  032%=      5-min Rain = 0
KLA1 120756Z 25001KT 08/M07 A3033 RMK A01 T00821071  RH  033%=      5-min Rain = 0
KLA1 120757Z 28000KT 08/M07 A3033 RMK A01 T00801071  RH  033%=      5-min Rain = 0
KLA1 120758Z 00000KT 08/M07 A3033 RMK A01 T00801070  RH  034%=      5-min Rain = 0
KLA1 120759Z 06001KT 08/M07 A3033 RMK A01 T00791069  RH  034%=      5-min Rain = 0
KLA1 120800Z 06001KT 08/M07 A3033 RMK A01 T00781070  RH  034%=      5-min Rain = 0
KLA1 120801Z 06000KT 08/M07 A3033 RMK A01 T00771070  RH  034%=      5-min Rain = 0
KLA1 120802Z 03000KT 08/M07 A3032 RMK A01 T00771069  RH  035%=      5-min Rain = 0
KLA1 120803Z 03001KT 08/M07 A3032 RMK A01 T00771069  RH  035%=      5-min Rain = 0
KLA1 120804Z 04001KT 08/M07 A3032 RMK A01 T00771069  RH  035%=      5-min Rain = 0
KLA1 120805Z 03000KT 08/M07 A3032 RMK A01 T00761069  RH  035%=      5-min Rain = 0
KLA1 120806Z 02002KT 08/M07 A3032 RMK A01 T00771068  RH  035%=      5-min Rain = 0
KLA1 120807Z 01002KT 08/M07 A3032 RMK A01 T00781069  RH  034%=      5-min Rain = 0
KLA1 120808Z 01003KT 08/M07 A3032 RMK A01 T00801069  RH  034%=      5-min Rain = 0
KLA1 120809Z 02003KT 08/M07 A3032 RMK A01 T00811068  RH  034%=      5-min Rain = 0
KLA1 120810Z 02003KT 08/M07 A3032 RMK A01 T00821069  RH  034%=      5-min Rain = 0
KLA1 120811Z 03003KT 08/M07 A3032 RMK A01 T00821067  RH  034%=      5-min Rain = 0
KLA1 120812Z 03003KT 08/M07 A3032 RMK A01 T00821068  RH  034%=      5-min Rain = 0
KLA1 120813Z 01002KT 08/M07 A3032 RMK A01 T00821069  RH  034%=      5-min Rain = 0
KLA1 120814Z 03001KT 08/M07 A3032 RMK A01 T00831070  RH  033%=      5-min Rain = 0
KLA1 120815Z 01003KT 08/M07 A3032 RMK A01 T00841071  RH  033%=      5-min Rain = 0
KLA1 120816Z 01003KT 09/M07 A3032 RMK A01 T00851070  RH  033%=      5-min Rain = 0
KLA1 120817Z 02002KT 09/M07 A3032 RMK A01 T00861070  RH  033%=      5-min Rain = 0
KLA1 120818Z 03002KT 09/M07 A3032 RMK A01 T00871071  RH  032%=      5-min Rain = 0
KLA1 120819Z 02002KT 09/M07 A3032 RMK A01 T00881071  RH  032%=      5-min Rain = 0
KLA1 120820Z 36001KT 09/M07 A3032 RMK A01 T00891070  RH  032%=      5-min Rain = 0
KLA1 120821Z 36001KT 09/M07 A3032 RMK A01 T00881068  RH  033%=      5-min Rain = 0
KLA1 120822Z 31001KT 09/M07 A3032 RMK A01 T00861067  RH  033%=      5-min Rain = 0
KLA1 120823Z 29001KT 08/M07 A3032 RMK A01 T00841066  RH  034%=      5-min Rain = 0
KLA1 120824Z 29001KT 08/M07 A3032 RMK A01 T00831066  RH  034%=      5-min Rain = 0
KLA1 120825Z 29002KT 08/M07 A3032 RMK A01 T00821066  RH  034%=      5-min Rain = 0
KLA1 120826Z 30002KT 08/M07 A3032 RMK A01 T00801067  RH  035%=      5-min Rain = 0
KLA1 120827Z 31001KT 08/M07 A3032 RMK A01 T00791067  RH  035%=      5-min Rain = 0
KLA1 120828Z 33001KT 08/M07 A3032 RMK A01 T00781067  RH  035%=      5-min Rain = 0
KLA1 120829Z 34001KT 08/M07 A3032 RMK A01 T00781067  RH  035%=      5-min Rain = 0
KLA1 120830Z 00001KT 08/M07 A3032 RMK A01 T00781067  RH  035%=      5-min Rain = 0
KLA1 120831Z 35001KT 08/M07 A3032 RMK A01 T00781067  RH  035%=      5-min Rain = 0
KLA1 120832Z 35001KT 08/M07 A3032 RMK A01 T00781068  RH  035%=      5-min Rain = 0
KLA1 120833Z 00002KT 08/M07 A3032 RMK A01 T00781067  RH  035%=      5-min Rain = 0
KLA1 120834Z 01002KT 08/M07 A3032 RMK A01 T00781067  RH  035%=      5-min Rain = 0
KLA1 120835Z 01002KT 08/M07 A3032 RMK A01 T00781066  RH  035%=      5-min Rain = 0
KLA1 120836Z 02001KT 08/M07 A3032 RMK A01 T00781065  RH  036%=      5-min Rain = 0
KLA1 120837Z 07001KT 08/M06 A3032 RMK A01 T00781064  RH  036%=      5-min Rain = 0
KLA1 120838Z 03001KT 08/M06 A3032 RMK A01 T00771064  RH  036%=      5-min Rain = 0
KLA1 120839Z 02001KT 08/M06 A3032 RMK A01 T00761064  RH  036%=      5-min Rain = 0
KLA1 120840Z 34001KT 08/M06 A3032 RMK A01 T00761063  RH  037%=      5-min Rain = 0
KLA1 120841Z 34002KT 08/M06 A3032 RMK A01 T00761063  RH  037%=      5-min Rain = 0
KLA1 120842Z 34003KT 08/M07 A3032 RMK A01 T00761065  RH  036%=      5-min Rain = 0
KLA1 120843Z 34004KT 08/M07 A3033 RMK A01 T00791069  RH  034%=      5-min Rain = 0
KLA1 120844Z 34004KT 09/M07 A3033 RMK A01 T00851072  RH  032%=      5-min Rain = 0
KLA1 120845Z 34004KT 09/M07 A3033 RMK A01 T00891074  RH  031%=      5-min Rain = 0
KLA1 120846Z 34003KT 09/M08 A3033 RMK A01 T00931075  RH  030%=      5-min Rain = 0
KLA1 120847Z 34003KT 10/M08 A3033 RMK A01 T00951075  RH  029%=      5-min Rain = 0
KLA1 120848Z 35004KT 10/M08 A3032 RMK A01 T00971076  RH  029%=      5-min Rain = 0
KLA1 120849Z 35004KT 10/M08 A3032 RMK A01 T00981077  RH  028%=      5-min Rain = 0
KLA1 120850Z 01003KT 10/M08 A3032 RMK A01 T00991077  RH  028%=      5-min Rain = 0
KLA1 120851Z 02003KT 10/M08 A3032 RMK A01 T00991076  RH  028%=      5-min Rain = 0
KLA1 120852Z 02003KT 10/M08 A3032 RMK A01 T00991076  RH  028%=      5-min Rain = 0
KLA1 120853Z 02003KT 10/M08 A3032 RMK A01 T00991075  RH  029%=      5-min Rain = 0
KLA1 120854Z 02004KT 10/M07 A3032 RMK A01 T00991074  RH  029%=      5-min Rain = 0
KLA1 120855Z 02004KT 10/M07 A3032 RMK A01 T00981074  RH  029%=      5-min Rain = 0
KLA1 120856Z 02005KT 10/M08 A3032 RMK A01 T00981075  RH  029%=      5-min Rain = 0
KLA1 120857Z 02004KT 10/M08 A3032 RMK A01 T00981076  RH  029%=      5-min Rain = 0
KLA1 120858Z 02005KT 10/M08 A3032 RMK A01 T00981076  RH  029%=      5-min Rain = 0
KLA1 120859Z 02004KT 10/M08 A3032 RMK A01 T00981075  RH  029%=      5-min Rain = 0
KLA1 120900Z 02004KT 10/M08 A3032 RMK A01 T00981076  RH  029%=      5-min Rain = 0
KLA1 120901Z 02005KT 10/M08 A3032 RMK A01 T00981076  RH  029%=      5-min Rain = 0
KLA1 120902Z 03005KT 10/M08 A3032 RMK A01 T00981076  RH  029%=      5-min Rain = 0
KLA1 120903Z 02005KT 10/M08 A3032 RMK A01 T00991075  RH  029%=      5-min Rain = 0
KLA1 120904Z 02006KT 10/M08 A3032 RMK A01 T00991075  RH  029%=      5-min Rain = 0
KLA1 120905Z 03005KT 10/M08 A3032 RMK A01 T00991077  RH  028%=      5-min Rain = 0
KLA1 120906Z 02005KT 10/M08 A3032 RMK A01 T00991076  RH  028%=      5-min Rain = 0
KLA1 120907Z 02006KT 10/M08 A3031 RMK A01 T01001076  RH  028%=      5-min Rain = 0
KLA1 120908Z 03005KT 10/M08 A3031 RMK A01 T00991077  RH  028%=      5-min Rain = 0
KLA1 120909Z 02005KT 10/M08 A3031 RMK A01 T01001076  RH  028%=      5-min Rain = 0
KLA1 120910Z 02005KT 10/M08 A3032 RMK A01 T01001076  RH  028%=      5-min Rain = 0
KLA1 120911Z 02004KT 10/M08 A3032 RMK A01 T00991077  RH  028%=      5-min Rain = 0
KLA1 120912Z 02005KT 10/M08 A3032 RMK A01 T01001076  RH  028%=      5-min Rain = 0
KLA1 120913Z 02006KT 10/M08 A3032 RMK A01 T01001077  RH  028%=      5-min Rain = 0
KLA1 120914Z 03005KT 10/M08 A3031 RMK A01 T01001077  RH  028%=      5-min Rain = 0
KLA1 120915Z 03005KT 10/M08 A3031 RMK A01 T01011077  RH  028%=      5-min Rain = 0
KLA1 120916Z 03006KT 10/M08 A3031 RMK A01 T01011077  RH  028%=      5-min Rain = 0
KLA1 120917Z 04008KT 10/M08 A3031 RMK A01 T01011076  RH  028%=      5-min Rain = 0
KLA1 120918Z 03007KT 10/M08 A3031 RMK A01 T01011076  RH  028%=      5-min Rain = 0
KLA1 120919Z 03006KT 10/M08 A3031 RMK A01 T01011076  RH  028%=      5-min Rain = 0
KLA1 120920Z 03006G11KT 10/M08 A3031 RMK A01 T01021076  RH  028%=      5-min Rain = 0
KLA1 120921Z 03010KT 10/M08 A3031 RMK A01 T01021075  RH  028%=      5-min Rain = 0
KLA1 120922Z 04008KT 10/M08 A3031 RMK A01 T01021075  RH  028%=      5-min Rain = 0
KLA1 120923Z 03005KT 10/M08 A3031 RMK A01 T01021075  RH  028%=      5-min Rain = 0
KLA1 120924Z 04005KT 10/M07 A3031 RMK A01 T01021074  RH  028%=      5-min Rain = 0
KLA1 120925Z 03006KT 10/M07 A3031 RMK A01 T01021074  RH  028%=      5-min Rain = 0
KLA1 120926Z 03006KT 10/M07 A3031 RMK A01 T01021074  RH  028%=      5-min Rain = 0
KLA1 120927Z 02004KT 10/M07 A3032 RMK A01 T01021073  RH  028%=      5-min Rain = 0
KLA1 120928Z 02003KT 10/M07 A3032 RMK A01 T01021074  RH  028%=      5-min Rain = 0
KLA1 120929Z 02003KT 10/M07 A3032 RMK A01 T01021074  RH  028%=      5-min Rain = 0
KLA1 120930Z 36005KT 10/M07 A3031 RMK A01 T01011074  RH  028%=      5-min Rain = 0
KLA1 120931Z 01006KT 10/M07 A3031 RMK A01 T01011073  RH  028%=      5-min Rain = 0
KLA1 120932Z 03003KT 10/M07 A3031 RMK A01 T01011073  RH  029%=      5-min Rain = 0
KLA1 120933Z 03002KT 10/M07 A3031 RMK A01 T01011073  RH  029%=      5-min Rain = 0
KLA1 120934Z 03004KT 10/M07 A3031 RMK A01 T01011073  RH  029%=      5-min Rain = 0
KLA1 120935Z 04003KT 10/M07 A3032 RMK A01 T01011073  RH  029%=      5-min Rain = 0
KLA1 120936Z 03003KT 10/M07 A3032 RMK A01 T01001072  RH  029%=      5-min Rain = 0
KLA1 120937Z 04003KT 10/M07 A3032 RMK A01 T01001072  RH  029%=      5-min Rain = 0
KLA1 120938Z 01003KT 10/M07 A3032 RMK A01 T01001072  RH  029%=      5-min Rain = 0
KLA1 120939Z 04003KT 10/M07 A3032 RMK A01 T01001072  RH  029%=      5-min Rain = 0
KLA1 120940Z 03003KT 10/M07 A3032 RMK A01 T01001071  RH  029%=      5-min Rain = 0
KLA1 120941Z 04003KT 10/M07 A3032 RMK A01 T01001071  RH  029%=      5-min Rain = 0
KLA1 120942Z 03003KT 10/M07 A3032 RMK A01 T00991071  RH  029%=      5-min Rain = 0
KLA1 120943Z 05002KT 10/M07 A3032 RMK A01 T00991071  RH  029%=      5-min Rain = 0
KLA1 120944Z 01002KT 10/M07 A3032 RMK A01 T00991071  RH  030%=      5-min Rain = 0
KLA1 120945Z 04002KT 10/M07 A3032 RMK A01 T00991071  RH  030%=      5-min Rain = 0
KLA1 120946Z 03002KT 10/M07 A3032 RMK A01 T00991071  RH  030%=      5-min Rain = 0
KLA1 120947Z 04002KT 10/M07 A3032 RMK A01 T00991070  RH  030%=      5-min Rain = 0
KLA1 120948Z 02002KT 10/M07 A3032 RMK A01 T00981070  RH  030%=      5-min Rain = 0
KLA1 120949Z 36001KT 10/M07 A3032 RMK A01 T00981070  RH  030%=      5-min Rain = 0
KLA1 120950Z 02001KT 10/M07 A3032 RMK A01 T00981070  RH  030%=      5-min Rain = 0
KLA1 120951Z 04003KT 10/M07 A3032 RMK A01 T00981070  RH  030%=      5-min Rain = 0
KLA1 120952Z 04003KT 10/M07 A3032 RMK A01 T00981070  RH  030%=      5-min Rain = 0
KLA1 120953Z 03002KT 10/M07 A3032 RMK A01 T00981069  RH  030%=      5-min Rain = 0
KLA1 120954Z 01002KT 10/M07 A3032 RMK A01 T00971070  RH  030%=      5-min Rain = 0
KLA1 120955Z 01002KT 10/M07 A3032 RMK A01 T00971070  RH  030%=      5-min Rain = 0
KLA1 120956Z 34002KT 10/M07 A3032 RMK A01 T00971069  RH  030%=      5-min Rain = 0
KLA1 120957Z 33002KT 10/M07 A3032 RMK A01 T00971070  RH  030%=      5-min Rain = 0
KLA1 120958Z 34002KT 10/M07 A3032 RMK A01 T00971070  RH  030%=      5-min Rain = 0
KLA1 120959Z 34001KT 10/M07 A3032 RMK A01 T00971070  RH  030%=      5-min Rain = 0
KLA1 121000Z 31002KT 10/M07 A3032 RMK A01 T00961071  RH  030%=      5-min Rain = 0
KLA1 121001Z 32002KT 10/M07 A3032 RMK A01 T00961070  RH  030%=      5-min Rain = 0
KLA1 121002Z 33002KT 10/M07 A3032 RMK A01 T00951071  RH  030%=      5-min Rain = 0
KLA1 121003Z 34002KT 10/M07 A3032 RMK A01 T00951070  RH  030%=      5-min Rain = 0
KLA1 121004Z 34002KT 10/M07 A3033 RMK A01 T00951070  RH  030%=      5-min Rain = 0
KLA1 121005Z 32003KT 10/M07 A3033 RMK A01 T00951071  RH  030%=      5-min Rain = 0
KLA1 121006Z 35004KT 10/M07 A3033 RMK A01 T00951070  RH  030%=      5-min Rain = 0
KLA1 121007Z 34003KT 10/M07 A3033 RMK A01 T00951071  RH  030%=      5-min Rain = 0
KLA1 121008Z 35004KT 09/M07 A3033 RMK A01 T00941072  RH  030%=      5-min Rain = 0
KLA1 121009Z 34005KT 09/M07 A3033 RMK A01 T00941071  RH  030%=      5-min Rain = 0
KLA1 121010Z 34005KT 09/M07 A3033 RMK A01 T00941071  RH  031%=      5-min Rain = 0
KLA1 121011Z 34005KT 09/M07 A3033 RMK A01 T00941071  RH  031%=      5-min Rain = 0
KLA1 121012Z 35005KT 09/M07 A3033 RMK A01 T00941070  RH  031%=      5-min Rain = 0
KLA1 121013Z 35005KT 09/M07 A3033 RMK A01 T00931070  RH  031%=      5-min Rain = 0
KLA1 121014Z 35006KT 09/M07 A3033 RMK A01 T00931070  RH  031%=      5-min Rain = 0
KLA1 121015Z 35005KT 09/M07 A3033 RMK A01 T00931070  RH  031%=      5-min Rain = 0
KLA1 121016Z 35005KT 09/M07 A3033 RMK A01 T00931071  RH  031%=      5-min Rain = 0
KLA1 121017Z 36005KT 09/M07 A3033 RMK A01 T00921071  RH  031%=      5-min Rain = 0
KLA1 121018Z 01005KT 09/M07 A3033 RMK A01 T00921070  RH  031%=      5-min Rain = 0
KLA1 121019Z 01006KT 09/M07 A3033 RMK A01 T00921068  RH  031%=      5-min Rain = 0
KLA1 121020Z 01006KT 09/M07 A3033 RMK A01 T00921067  RH  032%=      5-min Rain = 0
KLA1 121021Z 01005KT 09/M07 A3033 RMK A01 T00921067  RH  032%=      5-min Rain = 0
KLA1 121022Z 02005KT 09/M07 A3033 RMK A01 T00921067  RH  032%=      5-min Rain = 0
KLA1 121023Z 02007KT 09/M07 A3033 RMK A01 T00921065  RH  032%=      5-min Rain = 0
KLA1 121024Z 03007KT 09/M06 A3032 RMK A01 T00921064  RH  033%=      5-min Rain = 0
KLA1 121025Z 03006KT 09/M06 A3032 RMK A01 T00931063  RH  033%=      5-min Rain = 0
KLA1 121026Z 04005KT 09/M06 A3032 RMK A01 T00931063  RH  033%=      5-min Rain = 0
KLA1 121027Z 05005KT 09/M06 A3032 RMK A01 T00931062  RH  033%=      5-min Rain = 0
KLA1 121028Z 04004KT 09/M06 A3032 RMK A01 T00931062  RH  033%=      5-min Rain = 0
KLA1 121029Z 04005KT 09/M06 A3032 RMK A01 T00931062  RH  033%=      5-min Rain = 0
KLA1 121030Z 04005KT 09/M06 A3032 RMK A01 T00921062  RH  033%=      5-min Rain = 0
KLA1 121031Z 05005KT 09/M06 A3032 RMK A01 T00931061  RH  033%=      5-min Rain = 0
KLA1 121032Z 04005KT 09/M06 A3032 RMK A01 T00931061  RH  033%=      5-min Rain = 0
KLA1 121033Z 04004KT 09/M06 A3033 RMK A01 T00931060  RH  033%=      5-min Rain = 0
KLA1 121034Z 03003KT 09/M06 A3033 RMK A01 T00931059  RH  034%=      5-min Rain = 0
KLA1 121035Z 02005KT 09/M06 A3033 RMK A01 T00931060  RH  034%=      5-min Rain = 0
KLA1 121036Z 02005KT 09/M06 A3033 RMK A01 T00931060  RH  033%=      5-min Rain = 0
KLA1 121037Z 03004KT 09/M06 A3033 RMK A01 T00931060  RH  034%=      5-min Rain = 0
KLA1 121038Z 03005KT 09/M06 A3033 RMK A01 T00931059  RH  034%=      5-min Rain = 0
KLA1 121039Z 02005KT 09/M06 A3033 RMK A01 T00931058  RH  034%=      5-min Rain = 0
KLA1 121040Z 03004KT 09/M06 A3033 RMK A01 T00931057  RH  034%=      5-min Rain = 0
KLA1 121041Z 02004KT 09/M06 A3033 RMK A01 T00931057  RH  034%=      5-min Rain = 0
KLA1 121042Z 02006KT 09/M06 A3033 RMK A01 T00931057  RH  034%=      5-min Rain = 0
KLA1 121043Z 03005KT 09/M06 A3033 RMK A01 T00931056  RH  034%=      5-min Rain = 0
KLA1 121044Z 03005KT 09/M06 A3033 RMK A01 T00931056  RH  035%=      5-min Rain = 0
KLA1 121045Z 03004KT 09/M06 A3033 RMK A01 T00931055  RH  035%=      5-min Rain = 0
KLA1 121046Z 03005KT 09/M06 A3033 RMK A01 T00931055  RH  035%=      5-min Rain = 0
KLA1 121047Z 03006KT 09/M05 A3033 RMK A01 T00931054  RH  035%=      5-min Rain = 0
KLA1 121048Z 03006KT 09/M05 A3033 RMK A01 T00931053  RH  035%=      5-min Rain = 0
KLA1 121049Z 04008KT 09/M05 A3033 RMK A01 T00931051  RH  036%=      5-min Rain = 0
KLA1 121050Z 03007KT 09/M05 A3033 RMK A01 T00931050  RH  036%=      5-min Rain = 0
KLA1 121051Z 03007KT 09/M05 A3033 RMK A01 T00931050  RH  036%=      5-min Rain = 0
KLA1 121052Z 02005KT 09/M05 A3033 RMK A01 T00941049  RH  036%=      5-min Rain = 0
KLA1 121053Z 02005KT 09/M05 A3034 RMK A01 T00941050  RH  036%=      5-min Rain = 0
KLA1 121054Z 03006KT 09/M05 A3034 RMK A01 T00941050  RH  036%=      5-min Rain = 0
KLA1 121055Z 02006KT 09/M05 A3034 RMK A01 T00931050  RH  036%=      5-min Rain = 0
KLA1 121056Z 02005KT 09/M05 A3033 RMK A01 T00931050  RH  036%=      5-min Rain = 0
KLA1 121057Z 03004KT 09/M05 A3033 RMK A01 T00931050  RH  036%=      5-min Rain = 0
KLA1 121058Z 04005KT 09/M05 A3033 RMK A01 T00931049  RH  036%=      5-min Rain = 0
KLA1 121059Z 04006KT 09/M05 A3033 RMK A01 T00921049  RH  036%=      5-min Rain = 0
KLA1 121100Z 03005KT 09/M05 A3033 RMK A01 T00921049  RH  037%=      5-min Rain = 0
KLA1 121101Z 04007KT 09/M05 A3033 RMK A01 T00921049  RH  037%=      5-min Rain = 0
KLA1 121102Z 03008KT 09/M05 A3033 RMK A01 T00921049  RH  037%=      5-min Rain = 0
KLA1 121103Z 04007KT 09/M05 A3033 RMK A01 T00921049  RH  037%=      5-min Rain = 0
KLA1 121104Z 03006KT 09/M05 A3033 RMK A01 T00921049  RH  037%=      5-min Rain = 0
KLA1 121105Z 04007KT 09/M05 A3033 RMK A01 T00921048  RH  037%=      5-min Rain = 0
KLA1 121106Z 04008G13KT 09/M05 A3033 RMK A01 T00921048  RH  037%=      5-min Rain = 0
KLA1 121107Z 03007KT 09/M05 A3033 RMK A01 T00921048  RH  037%=      5-min Rain = 0
KLA1 121108Z 03009KT 09/M05 A3033 RMK A01 T00921048  RH  037%=      5-min Rain = 0
KLA1 121109Z 03009KT 09/M05 A3033 RMK A01 T00921048  RH  037%=      5-min Rain = 0
KLA1 121110Z 03010KT 09/M05 A3033 RMK A01 T00921047  RH  037%=      5-min Rain = 0
KLA1 121111Z 03009KT 09/M05 A3033 RMK A01 T00921047  RH  037%=      5-min Rain = 0
KLA1 121112Z 03007KT 09/M05 A3033 RMK A01 T00921047  RH  037%=      5-min Rain = 0
KLA1 121113Z 03011KT 09/M05 A3033 RMK A01 T00921047  RH  037%=      5-min Rain = 0
KLA1 121114Z 03009KT 09/M05 A3033 RMK A01 T00921047  RH  037%=      5-min Rain = 0
KLA1 121115Z 03010KT 09/M05 A3033 RMK A01 T00911048  RH  037%=      5-min Rain = 0
KLA1 121116Z 04008KT 09/M05 A3032 RMK A01 T00911047  RH  037%=      5-min Rain = 0
KLA1 121117Z 03009KT 09/M05 A3032 RMK A01 T00911047  RH  037%=      5-min Rain = 0
KLA1 121118Z 03010KT 09/M05 A3032 RMK A01 T00911048  RH  037%=      5-min Rain = 0
KLA1 121119Z 03009KT 09/M05 A3033 RMK A01 T00911048  RH  037%=      5-min Rain = 0
KLA1 121120Z 03007KT 09/M05 A3033 RMK A01 T00911048  RH  037%=      5-min Rain = 0
KLA1 121121Z 03007KT 09/M05 A3033 RMK A01 T00901048  RH  037%=      5-min Rain = 0
KLA1 121122Z 03008KT 09/M05 A3033 RMK A01 T00901048  RH  037%=      5-min Rain = 0
KLA1 121123Z 02007KT 09/M05 A3033 RMK A01 T00901048  RH  037%=      5-min Rain = 0
KLA1 121124Z 04009KT 09/M05 A3033 RMK A01 T00901048  RH  037%=      5-min Rain = 0
KLA1 121125Z 03012KT 09/M05 A3033 RMK A01 T00901048  RH  037%=      5-min Rain = 0
KLA1 121126Z 03009KT 09/M05 A3033 RMK A01 T00901048  RH  037%=      5-min Rain = 0
KLA1 121127Z 03006KT 09/M05 A3033 RMK A01 T00901048  RH  037%=      5-min Rain = 0
KLA1 121128Z 03008KT 09/M05 A3034 RMK A01 T00901048  RH  037%=      5-min Rain = 0
KLA1 121129Z 03006KT 09/M05 A3034 RMK A01 T00901048  RH  037%=      5-min Rain = 0
KLA1 121130Z 03007KT 09/M05 A3034 RMK A01 T00901048  RH  037%=      5-min Rain = 0
KLA1 121131Z 04007KT 09/M05 A3034 RMK A01 T00891048  RH  037%=      5-min Rain = 0
KLA1 121132Z 03006KT 09/M05 A3034 RMK A01 T00891048  RH  038%=      5-min Rain = 0
KLA1 121133Z 04006G11KT 09/M05 A3034 RMK A01 T00891048  RH  038%=      5-min Rain = 0
KLA1 121134Z 02008KT 09/M05 A3034 RMK A01 T00881048  RH  038%=      5-min Rain = 0
KLA1 121135Z 03006KT 09/M05 A3034 RMK A01 T00891048  RH  038%=      5-min Rain = 0
KLA1 121136Z 04005KT 09/M05 A3034 RMK A01 T00881048  RH  038%=      5-min Rain = 0
KLA1 121137Z 03005KT 09/M05 A3034 RMK A01 T00881048  RH  038%=      5-min Rain = 0
KLA1 121138Z 03007KT 09/M05 A3034 RMK A01 T00881048  RH  038%=      5-min Rain = 0
KLA1 121139Z 02005KT 09/M05 A3034 RMK A01 T00871049  RH  038%=      5-min Rain = 0
KLA1 121140Z 02005KT 09/M05 A3034 RMK A01 T00871048  RH  038%=      5-min Rain = 0
KLA1 121141Z 03005KT 09/M05 A3034 RMK A01 T00871048  RH  038%=      5-min Rain = 0
KLA1 121142Z 04006KT 09/M05 A3034 RMK A01 T00861049  RH  038%=      5-min Rain = 0
KLA1 121143Z 04004KT 09/M05 A3034 RMK A01 T00861049  RH  038%=      5-min Rain = 0
KLA1 121144Z 03003KT 09/M05 A3034 RMK A01 T00861049  RH  038%=      5-min Rain = 0
KLA1 121145Z 03002KT 09/M05 A3034 RMK A01 T00861049  RH  038%=      5-min Rain = 0
KLA1 121146Z 03002KT 09/M05 A3034 RMK A01 T00861049  RH  038%=      5-min Rain = 0
KLA1 121147Z 03002KT 09/M05 A3034 RMK A01 T00861049  RH  038%=      5-min Rain = 0
KLA1 121148Z 05003KT 09/M05 A3034 RMK A01 T00861049  RH  038%=      5-min Rain = 0
KLA1 121149Z 02002KT 09/M05 A3034 RMK A01 T00861048  RH  038%=      5-min Rain = 0
KLA1 121150Z 33002KT 09/M05 A3035 RMK A01 T00861048  RH  038%=      5-min Rain = 0
KLA1 121151Z 34001KT 09/M05 A3035 RMK A01 T00861048  RH  038%=      5-min Rain = 0
KLA1 121152Z 17000KT 09/M05 A3035 RMK A01 T00861049  RH  038%=      5-min Rain = 0
KLA1 121153Z 33002KT 09/M05 A3035 RMK A01 T00861048  RH  038%=      5-min Rain = 0
KLA1 121154Z 02003KT 09/M05 A3035 RMK A01 T00861048  RH  038%=      5-min Rain = 0
KLA1 121155Z 05007KT 09/M05 A3034 RMK A01 T00861048  RH  039%=      5-min Rain = 0
KLA1 121156Z 04004KT 09/M05 A3035 RMK A01 T00861047  RH  039%=      5-min Rain = 0
KLA1 121157Z 02002KT 09/M05 A3034 RMK A01 T00861047  RH  039%=      5-min Rain = 0
KLA1 121158Z 02002KT 09/M05 A3035 RMK A01 T00861047  RH  039%=      5-min Rain = 0
KLA1 121159Z 02003KT 09/M05 A3034 RMK A01 T00861047  RH  039%=      5-min Rain = 0
KLA1 121200Z 04005KT 09/M05 A3034 RMK A01 T00851048  RH  039%=      5-min Rain = 0
KLA1 121201Z 04005KT 09/M05 A3034 RMK A01 T00851047  RH  039%=      5-min Rain = 0
KLA1 121202Z 03004KT 09/M05 A3034 RMK A01 T00851047  RH  039%=      5-min Rain = 0
KLA1 121203Z 03003KT 09/M05 A3034 RMK A01 T00851046  RH  039%=      5-min Rain = 0
KLA1 121204Z 04005KT 08/M05 A3034 RMK A01 T00841047  RH  039%=      5-min Rain = 0
KLA1 121205Z 04006KT 08/M05 A3034 RMK A01 T00841047  RH  039%=      5-min Rain = 0
KLA1 121206Z 03005KT 08/M05 A3034 RMK A01 T00841046  RH  039%=      5-min Rain = 0
KLA1 121207Z 03006KT 08/M05 A3034 RMK A01 T00841046  RH  039%=      5-min Rain = 0
KLA1 121208Z 03005KT 08/M05 A3034 RMK A01 T00831046  RH  040%=      5-min Rain = 0
KLA1 121209Z 03005KT 08/M05 A3034 RMK A01 T00831046  RH  040%=      5-min Rain = 0
KLA1 121210Z 04005KT 08/M05 A3034 RMK A01 T00831046  RH  040%=      5-min Rain = 0
KLA1 121211Z 03004KT 08/M05 A3034 RMK A01 T00831046  RH  040%=      5-min Rain = 0
KLA1 121212Z 02003KT 08/M05 A3034 RMK A01 T00831046  RH  040%=      5-min Rain = 0
KLA1 121213Z 03004KT 08/M05 A3034 RMK A01 T00821046  RH  040%=      5-min Rain = 0
KLA1 121214Z 03004KT 08/M05 A3034 RMK A01 T00821046  RH  040%=      5-min Rain = 0
KLA1 121215Z 04006KT 08/M05 A3034 RMK A01 T00831045  RH  040%=      5-min Rain = 0
KLA1 121216Z 04005KT 08/M05 A3034 RMK A01 T00821046  RH  040%=      5-min Rain = 0
KLA1 121217Z 02004KT 08/M05 A3034 RMK A01 T00821046  RH  040%=      5-min Rain = 0
KLA1 121218Z 02003KT 08/M05 A3035 RMK A01 T00831045  RH  040%=      5-min Rain = 0
KLA1 121219Z 03003KT 08/M05 A3035 RMK A01 T00821046  RH  040%=      5-min Rain = 0
KLA1 121220Z 03003KT 08/M05 A3035 RMK A01 T00821046  RH  040%=      5-min Rain = 0
KLA1 121221Z 04004KT 08/M05 A3035 RMK A01 T00821046  RH  040%=      5-min Rain = 0
KLA1 121222Z 02003KT 08/M05 A3035 RMK A01 T00811045  RH  040%=      5-min Rain = 0
KLA1 121223Z 02002KT 08/M05 A3035 RMK A01 T00811046  RH  040%=      5-min Rain = 0
KLA1 121224Z 02002KT 08/M05 A3035 RMK A01 T00801046  RH  041%=      5-min Rain = 0
KLA1 121225Z 04003KT 08/M05 A3035 RMK A01 T00801046  RH  041%=      5-min Rain = 0
KLA1 121226Z 04004KT 08/M05 A3035 RMK A01 T00791046  RH  041%=      5-min Rain = 0
KLA1 121227Z 03003KT 08/M05 A3035 RMK A01 T00791045  RH  041%=      5-min Rain = 0
KLA1 121228Z 03003KT 08/M05 A3035 RMK A01 T00791045  RH  041%=      5-min Rain = 0
KLA1 121229Z 04003KT 08/M05 A3035 RMK A01 T00791045  RH  041%=      5-min Rain = 0
KLA1 121230Z 04003KT 08/M05 A3035 RMK A01 T00791045  RH  041%=      5-min Rain = 0
KLA1 121231Z 04002KT 08/M05 A3035 RMK A01 T00791045  RH  041%=      5-min Rain = 0
KLA1 121232Z 04003KT 08/M05 A3035 RMK A01 T00791045  RH  041%=      5-min Rain = 0
KLA1 121233Z 02003KT 08/M05 A3035 RMK A01 T00781046  RH  041%=      5-min Rain = 0
KLA1 121234Z 02003KT 08/M05 A3035 RMK A01 T00781046  RH  041%=      5-min Rain = 0
KLA1 121235Z 02003KT 08/M05 A3035 RMK A01 T00771046  RH  041%=      5-min Rain = 0
KLA1 121236Z 01003KT 08/M05 A3035 RMK A01 T00771045  RH  041%=      5-min Rain = 0
KLA1 121237Z 01004KT 08/M05 A3035 RMK A01 T00771045  RH  042%=      5-min Rain = 0
KLA1 121238Z 02004KT 08/M05 A3036 RMK A01 T00761045  RH  042%=      5-min Rain = 0
KLA1 121239Z 01004KT 08/M05 A3036 RMK A01 T00761045  RH  042%=      5-min Rain = 0
KLA1 121240Z 02004KT 08/M05 A3036 RMK A01 T00761045  RH  042%=      5-min Rain = 0
KLA1 121241Z 02004KT 08/M05 A3036 RMK A01 T00761045  RH  042%=      5-min Rain = 0
KLA1 121242Z 02004KT 08/M05 A3036 RMK A01 T00761045  RH  042%=      5-min Rain = 0
KLA1 121243Z 03003KT 08/M05 A3036 RMK A01 T00761045  RH  042%=      5-min Rain = 0
KLA1 121244Z 03004KT 08/M05 A3036 RMK A01 T00761045  RH  042%=      5-min Rain = 0
KLA1 121245Z 03003KT 08/M04 A3036 RMK A01 T00761044  RH  042%=      5-min Rain = 0
KLA1 121246Z 03004KT 08/M04 A3036 RMK A01 T00771044  RH  042%=      5-min Rain = 0
KLA1 121247Z 04003KT 08/M04 A3036 RMK A01 T00771044  RH  042%=      5-min Rain = 0
KLA1 121248Z 03003KT 08/M04 A3036 RMK A01 T00771044  RH  042%=      5-min Rain = 0
KLA1 121249Z 04003KT 08/M04 A3036 RMK A01 T00771044  RH  042%=      5-min Rain = 0
KLA1 121250Z 05002KT 08/M04 A3036 RMK A01 T00771044  RH  042%=      5-min Rain = 0
KLA1 121251Z 05001KT 08/M04 A3036 RMK A01 T00781044  RH  042%=      5-min Rain = 0
KLA1 121252Z 06002KT 08/M04 A3036 RMK A01 T00781044  RH  042%=      5-min Rain = 0
KLA1 121253Z 07001KT 08/M04 A3036 RMK A01 T00781044  RH  042%=      5-min Rain = 0
KLA1 121254Z 07001KT 08/M04 A3037 RMK A01 T00781044  RH  042%=      5-min Rain = 0
KLA1 121255Z 06001KT 08/M04 A3037 RMK A01 T00781044  RH  042%=      5-min Rain = 0
KLA1 121256Z 05001KT 08/M04 A3037 RMK A01 T00781043  RH  042%=      5-min Rain = 0
KLA1 121257Z 05001KT 08/M04 A3037 RMK A01 T00781044  RH  042%=      5-min Rain = 0
KLA1 121258Z 06001KT 08/M04 A3037 RMK A01 T00781043  RH  042%=      5-min Rain = 0
KLA1 121259Z 02001KT 08/M04 A3037 RMK A01 T00781043  RH  042%=      5-min Rain = 0
KLA1 121300Z 35001KT 08/M04 A3037 RMK A01 T00781043  RH  042%=      5-min Rain = 0
KLA1 121301Z 04001KT 08/M04 A3037 RMK A01 T00791043  RH  042%=      5-min Rain = 0
KLA1 121302Z 03001KT 08/M04 A3037 RMK A01 T00791043  RH  042%=      5-min Rain = 0
KLA1 121303Z 05002KT 08/M04 A3037 RMK A01 T00791042  RH  042%=      5-min Rain = 0
KLA1 121304Z 06002KT 08/M04 A3037 RMK A01 T00791042  RH  042%=      5-min Rain = 0
KLA1 121305Z 05001KT 08/M04 A3037 RMK A01 T00791042  RH  042%=      5-min Rain = 0
KLA1 121306Z 05001KT 08/M04 A3037 RMK A01 T00791042  RH  042%=      5-min Rain = 0
KLA1 121307Z 06001KT 08/M04 A3037 RMK A01 T00791041  RH  042%=      5-min Rain = 0
KLA1 121308Z 05001KT 08/M04 A3037 RMK A01 T00801041  RH  042%=      5-min Rain = 0
KLA1 121309Z 07001KT 08/M04 A3037 RMK A01 T00801041  RH  042%=      5-min Rain = 0
KLA1 121310Z 09002KT 08/M04 A3037 RMK A01 T00801041  RH  042%=      5-min Rain = 0
KLA1 121311Z 11001KT 08/M04 A3037 RMK A01 T00801041  RH  042%=      5-min Rain = 0
KLA1 121312Z 10001KT 08/M04 A3037 RMK A01 T00791042  RH  042%=      5-min Rain = 0
KLA1 121313Z 09001KT 08/M04 A3037 RMK A01 T00791041  RH  042%=      5-min Rain = 0
KLA1 121314Z 08002KT 08/M04 A3037 RMK A01 T00791041  RH  042%=      5-min Rain = 0
KLA1 121315Z 07001KT 08/M04 A3037 RMK A01 T00791040  RH  043%=      5-min Rain = 0
KLA1 121316Z 06002KT 08/M04 A3037 RMK A01 T00791040  RH  043%=      5-min Rain = 0
KLA1 121317Z 05002KT 08/M04 A3037 RMK A01 T00801040  RH  043%=      5-min Rain = 0
KLA1 121318Z 04002KT 08/M04 A3037 RMK A01 T00801040  RH  042%=      5-min Rain = 0
KLA1 121319Z 04002KT 08/M04 A3037 RMK A01 T00801040  RH  042%=      5-min Rain = 0
KLA1 121320Z 04001KT 08/M04 A3037 RMK A01 T00801040  RH  043%=      5-min Rain = 0
KLA1 121321Z 02002KT 08/M04 A3037 RMK A01 T00801040  RH  043%=      5-min Rain = 0
KLA1 121322Z 04002KT 08/M04 A3037 RMK A01 T00801040  RH  042%=      5-min Rain = 0
KLA1 121323Z 06002KT 08/M04 A3037 RMK A01 T00801039  RH  043%=      5-min Rain = 0
KLA1 121324Z 08001KT 08/M04 A3037 RMK A01 T00811039  RH  043%=      5-min Rain = 0
KLA1 121325Z 04001KT 08/M04 A3037 RMK A01 T00811039  RH  042%=      5-min Rain = 0
KLA1 121326Z 04001KT 08/M04 A3037 RMK A01 T00821038  RH  042%=      5-min Rain = 0
KLA1 121327Z 05001KT 08/M04 A3037 RMK A01 T00811038  RH  043%=      5-min Rain = 0
KLA1 121328Z 06000KT 08/M04 A3037 RMK A01 T00821038  RH  042%=      5-min Rain = 0
KLA1 121329Z 04002KT 08/M04 A3037 RMK A01 T00821038  RH  042%=      5-min Rain = 0
KLA1 121330Z 02002KT 08/M04 A3037 RMK A01 T00821038  RH  042%=      5-min Rain = 0
KLA1 121331Z 04002KT 08/M04 A3037 RMK A01 T00831038  RH  042%=      5-min Rain = 0
KLA1 121332Z 01001KT 08/M04 A3037 RMK A01 T00821038  RH  042%=      5-min Rain = 0
KLA1 121333Z 01001KT 08/M04 A3037 RMK A01 T00831038  RH  042%=      5-min Rain = 0
KLA1 121334Z 02002KT 08/M04 A3037 RMK A01 T00831038  RH  042%=      5-min Rain = 0
KLA1 121335Z 02002KT 08/M04 A3037 RMK A01 T00831038  RH  042%=      5-min Rain = 0
KLA1 121336Z 03002KT 08/M04 A3037 RMK A01 T00831038  RH  042%=      5-min Rain = 0
KLA1 121337Z 04003KT 08/M04 A3037 RMK A01 T00831038  RH  042%=      5-min Rain = 0
KLA1 121338Z 03003KT 08/M04 A3037 RMK A01 T00831037  RH  042%=      5-min Rain = 0
KLA1 121339Z 03003KT 08/M04 A3037 RMK A01 T00831037  RH  043%=      5-min Rain = 0
KLA1 121340Z 03003KT 08/M04 A3037 RMK A01 T00831037  RH  042%=      5-min Rain = 0
KLA1 121341Z 05005KT 08/M04 A3037 RMK A01 T00831037  RH  043%=      5-min Rain = 0
KLA1 121342Z 06003KT 08/M04 A3037 RMK A01 T00831037  RH  043%=      5-min Rain = 0
KLA1 121343Z 02002KT 08/M04 A3037 RMK A01 T00831037  RH  043%=      5-min Rain = 0
KLA1 121344Z 03003KT 08/M04 A3037 RMK A01 T00831036  RH  043%=      5-min Rain = 0
KLA1 121345Z 03004KT 08/M04 A3037 RMK A01 T00841036  RH  043%=      5-min Rain = 0
KLA1 121346Z 04003KT 08/M04 A3037 RMK A01 T00841036  RH  043%=      5-min Rain = 0
KLA1 121347Z 03004KT 08/M04 A3037 RMK A01 T00841036  RH  043%=      5-min Rain = 0
KLA1 121348Z 03004KT 08/M04 A3037 RMK A01 T00841036  RH  043%=      5-min Rain = 0
KLA1 121349Z 03004KT 08/M04 A3038 RMK A01 T00841035  RH  043%=      5-min Rain = 0
KLA1 121350Z 03004KT 08/M04 A3038 RMK A01 T00841035  RH  043%=      5-min Rain = 0
KLA1 121351Z 04005KT 08/M04 A3038 RMK A01 T00841035  RH  043%=      5-min Rain = 0
KLA1 121352Z 05003KT 09/M03 A3037 RMK A01 T00851034  RH  043%=      5-min Rain = 0
KLA1 121353Z 03003KT 09/M03 A3037 RMK A01 T00851034  RH  043%=      5-min Rain = 0
KLA1 121354Z 03003KT 09/M04 A3038 RMK A01 T00851035  RH  043%=      5-min Rain = 0
KLA1 121355Z 03003KT 09/M03 A3038 RMK A01 T00851034  RH  043%=      5-min Rain = 0
KLA1 121356Z 05005KT 09/M03 A3038 RMK A01 T00851034  RH  043%=      5-min Rain = 0
KLA1 121357Z 05004KT 09/M03 A3038 RMK A01 T00861034  RH  043%=      5-min Rain = 0
KLA1 121358Z 05004KT 09/M03 A3038 RMK A01 T00861034  RH  043%=      5-min Rain = 0
KLA1 121359Z 04003KT 09/M03 A3038 RMK A01 T00861033  RH  043%=      5-min Rain = 0
KLA1 121400Z 02004KT 09/M03 A3038 RMK A01 T00861033  RH  043%=      5-min Rain = 0
KLA1 121401Z 03005KT 09/M03 A3038 RMK A01 T00861033  RH  043%=      5-min Rain = 0
KLA1 121402Z 00004KT 09/M03 A3038 RMK A01 T00871033  RH  043%=      5-min Rain = 0
KLA1 121403Z 01003KT 09/M03 A3038 RMK A01 T00871034  RH  043%=      5-min Rain = 0
KLA1 121404Z 02004KT 09/M03 A3038 RMK A01 T00871033  RH  043%=      5-min Rain = 0
KLA1 121405Z 03004KT 09/M03 A3038 RMK A01 T00861033  RH  043%=      5-min Rain = 0
KLA1 121406Z 06005KT 09/M03 A3038 RMK A01 T00871033  RH  043%=      5-min Rain = 0
KLA1 121407Z 03005KT 09/M03 A3038 RMK A01 T00871033  RH  043%=      5-min Rain = 0
KLA1 121408Z 03005KT 09/M03 A3038 RMK A01 T00871033  RH  043%=      5-min Rain = 0
KLA1 121409Z 03007KT 09/M03 A3038 RMK A01 T00881032  RH  043%=      5-min Rain = 0
KLA1 121410Z 03006KT 09/M03 A3038 RMK A01 T00881033  RH  043%=      5-min Rain = 0
KLA1 121411Z 04005KT 09/M03 A3038 RMK A01 T00881033  RH  042%=      5-min Rain = 0
KLA1 121412Z 04007KT 09/M03 A3038 RMK A01 T00881033  RH  042%=      5-min Rain = 0
KLA1 121413Z 04005KT 09/M03 A3038 RMK A01 T00881033  RH  043%=      5-min Rain = 0
KLA1 121414Z 05006KT 09/M03 A3039 RMK A01 T00881032  RH  043%=      5-min Rain = 0
KLA1 121415Z 03005KT 09/M03 A3039 RMK A01 T00881032  RH  043%=      5-min Rain = 0
KLA1 121416Z 04004KT 09/M03 A3039 RMK A01 T00881032  RH  043%=      5-min Rain = 0
KLA1 121417Z 06003KT 09/M03 A3039 RMK A01 T00881033  RH  043%=      5-min Rain = 0
KLA1 121418Z 04003KT 09/M03 A3039 RMK A01 T00881033  RH  042%=      5-min Rain = 0
KLA1 121419Z 06003KT 09/M03 A3039 RMK A01 T00881033  RH  042%=      5-min Rain = 0
KLA1 121420Z 05002KT 09/M03 A3039 RMK A01 T00881033  RH  042%=      5-min Rain = 0
KLA1 121421Z 05001KT 09/M03 A3039 RMK A01 T00881032  RH  042%=      5-min Rain = 0
KLA1 121422Z 05003KT 09/M03 A3039 RMK A01 T00891032  RH  042%=      5-min Rain = 0
KLA1 121423Z 04006KT 09/M03 A3039 RMK A01 T00891032  RH  042%=      5-min Rain = 0
KLA1 121424Z 07004KT 09/M03 A3039 RMK A01 T00901032  RH  042%=      5-min Rain = 0
KLA1 121425Z 07005KT 09/M03 A3039 RMK A01 T00901032  RH  042%=      5-min Rain = 0
KLA1 121426Z 05004KT 09/M03 A3039 RMK A01 T00901032  RH  042%=      5-min Rain = 0
KLA1 121427Z 04003KT 09/M03 A3039 RMK A01 T00911032  RH  042%=      5-min Rain = 0
KLA1 121428Z 05003KT 09/M03 A3039 RMK A01 T00911031  RH  042%=      5-min Rain = 0
KLA1 121429Z 07005KT 09/M03 A3039 RMK A01 T00921031  RH  042%=      5-min Rain = 0
KLA1 121430Z 08005KT 09/M03 A3039 RMK A01 T00921032  RH  042%=      5-min Rain = 0
KLA1 121431Z 08004KT 09/M03 A3039 RMK A01 T00921032  RH  042%=      5-min Rain = 0
KLA1 121432Z 09004KT 09/M03 A3039 RMK A01 T00921032  RH  042%=      5-min Rain = 0
KLA1 121433Z 09002KT 09/M03 A3039 RMK A01 T00921032  RH  042%=      5-min Rain = 0
KLA1 121434Z 08002KT 09/M03 A3039 RMK A01 T00921032  RH  042%=      5-min Rain = 0
KLA1 121435Z 06005KT 09/M03 A3039 RMK A01 T00931031  RH  042%=      5-min Rain = 0
KLA1 121436Z 06007KT 09/M03 A3039 RMK A01 T00931032  RH  041%=      5-min Rain = 0
KLA1 121437Z 07004KT 09/M03 A3039 RMK A01 T00921033  RH  041%=      5-min Rain = 0
KLA1 121438Z 07004KT 09/M03 A3039 RMK A01 T00921032  RH  041%=      5-min Rain = 0
KLA1 121439Z 07006KT 09/M03 A304 RMK A01 T00921032  RH  041%=      5-min Rain = 0
KLA1 121440Z 05004KT 09/M03 A304 RMK A01 T00921033  RH  041%=      5-min Rain = 0
KLA1 121441Z 07006KT 09/M03 A304 RMK A01 T00931033  RH  041%=      5-min Rain = 0
KLA1 121442Z 09005KT 09/M03 A304 RMK A01 T00931033  RH  041%=      5-min Rain = 0
KLA1 121443Z 09006KT 09/M03 A304 RMK A01 T00941033  RH  041%=      5-min Rain = 0
KLA1 121444Z 07006KT 09/M03 A304 RMK A01 T00941032  RH  041%=      5-min Rain = 0
KLA1 121445Z 08006KT 09/M03 A304 RMK A01 T00941032  RH  041%=      5-min Rain = 0
KLA1 121446Z 07007KT 09/M03 A304 RMK A01 T00941032  RH  041%=      5-min Rain = 0
KLA1 121447Z 07007KT 09/M03 A304 RMK A01 T00941032  RH  041%=      5-min Rain = 0
KLA1 121448Z 07005KT 09/M03 A304 RMK A01 T00941032  RH  041%=      5-min Rain = 0
KLA1 121449Z 09004KT 09/M03 A304 RMK A01 T00941032  RH  041%=      5-min Rain = 0
KLA1 121450Z 08003KT 09/M03 A304 RMK A01 T00941032  RH  041%=      5-min Rain = 0
KLA1 121451Z 09005KT 09/M03 A304 RMK A01 T00941032  RH  041%=      5-min Rain = 0
KLA1 121452Z 09006KT 10/M03 A304 RMK A01 T00951031  RH  041%=      5-min Rain = 0
KLA1 121453Z 07005KT 10/M03 A304 RMK A01 T00951032  RH  041%=      5-min Rain = 0
KLA1 121454Z 04005KT 10/M03 A304 RMK A01 T00951032  RH  041%=      5-min Rain = 0
KLA1 121455Z 03005KT 10/M03 A304 RMK A01 T00961031  RH  041%=      5-min Rain = 0
KLA1 121456Z 03005KT 10/M03 A304 RMK A01 T00971031  RH  041%=      5-min Rain = 0
KLA1 121457Z 04004KT 10/M03 A304 RMK A01 T00981031  RH  040%=      5-min Rain = 0
KLA1 121458Z 03003KT 10/M03 A304 RMK A01 T00981031  RH  040%=      5-min Rain = 0
KLA1 121459Z 01005KT 10/M03 A304 RMK A01 T00981031  RH  040%=      5-min Rain = 0
KLA1 121500Z 06006KT 10/M03 A304 RMK A01 T00981031  RH  040%=      5-min Rain = 0
KLA1 121501Z 05003KT 10/M03 A304 RMK A01 T00981030  RH  040%=      5-min Rain = 0
KLA1 121502Z 05003KT 10/M03 A304 RMK A01 T00981030  RH  040%=      5-min Rain = 0
KLA1 121503Z 03002KT 10/M03 A304 RMK A01 T00991031  RH  040%=      5-min Rain = 0
KLA1 121504Z 02006KT 10/M03 A304 RMK A01 T00991030  RH  040%=      5-min Rain = 0
KLA1 121505Z 03005KT 10/M03 A304 RMK A01 T00991031  RH  040%=      5-min Rain = 0
KLA1 121506Z 03006KT 10/M03 A304 RMK A01 T00991031  RH  040%=      5-min Rain = 0
KLA1 121507Z 04006KT 10/M03 A304 RMK A01 T00991031  RH  040%=      5-min Rain = 0
KLA1 121508Z 04005KT 10/M03 A304 RMK A01 T00991031  RH  040%=      5-min Rain = 0
KLA1 121509Z 04007KT 10/M03 A304 RMK A01 T00991030  RH  040%=      5-min Rain = 0
KLA1 121510Z 04006KT 10/M03 A304 RMK A01 T00991030  RH  040%=      5-min Rain = 0
KLA1 121511Z 03006KT 10/M03 A304 RMK A01 T01001030  RH  040%=      5-min Rain = 0
KLA1 121512Z 05005KT 10/M03 A304 RMK A01 T00991030  RH  040%=      5-min Rain = 0
KLA1 121513Z 07004KT 10/M03 A304 RMK A01 T01001030  RH  040%=      5-min Rain = 0
KLA1 121514Z 07002KT 10/M03 A304 RMK A01 T01001030  RH  040%=      5-min Rain = 0
KLA1 121515Z 06004KT 10/M03 A304 RMK A01 T01011029  RH  040%=      5-min Rain = 0
KLA1 121516Z 05006KT 10/M03 A304 RMK A01 T01011030  RH  040%=      5-min Rain = 0
KLA1 121517Z 07005KT 10/M03 A304 RMK A01 T01011030  RH  039%=      5-min Rain = 0
KLA1 121518Z 08006KT 10/M03 A304 RMK A01 T01011030  RH  040%=      5-min Rain = 0
KLA1 121519Z 07003KT 10/M03 A304 RMK A01 T01001032  RH  039%=      5-min Rain = 0
KLA1 121520Z 05003KT 10/M03 A304 RMK A01 T00991031  RH  040%=      5-min Rain = 0
KLA1 121521Z 08003KT 10/M03 A304 RMK A01 T00991031  RH  040%=      5-min Rain = 0
KLA1 121522Z 08006KT 10/M03 A304 RMK A01 T01001030  RH  040%=      5-min Rain = 0
KLA1 121523Z 09005KT 10/M03 A304 RMK A01 T01001030  RH  040%=      5-min Rain = 0
KLA1 121524Z 08004KT 10/M03 A304 RMK A01 T01001031  RH  040%=      5-min Rain = 0
KLA1 121525Z 05007KT 10/M03 A304 RMK A01 T01011031  RH  040%=      5-min Rain = 0
KLA1 121526Z 07007KT 10/M03 A304 RMK A01 T01011031  RH  039%=      5-min Rain = 0
KLA1 121527Z 07006KT 10/M03 A304 RMK A01 T01001031  RH  040%=      5-min Rain = 0
KLA1 121528Z 06005KT 10/M03 A304 RMK A01 T01001031  RH  039%=      5-min Rain = 0
KLA1 121529Z 08005KT 10/M03 A304 RMK A01 T01001032  RH  039%=      5-min Rain = 0
KLA1 121530Z 07007KT 10/M03 A304 RMK A01 T00991032  RH  040%=      5-min Rain = 0
KLA1 121531Z 07007KT 10/M03 A304 RMK A01 T00981033  RH  040%=      5-min Rain = 0
KLA1 121532Z 09006KT 10/M03 A304 RMK A01 T00981033  RH  040%=      5-min Rain = 0
KLA1 121533Z 11006KT 10/M03 A304 RMK A01 T00981033  RH  040%=      5-min Rain = 0
KLA1 121534Z 10007KT 10/M03 A304 RMK A01 T00981032  RH  040%=      5-min Rain = 0
KLA1 121535Z 08006KT 10/M03 A304 RMK A01 T01001032  RH  039%=      5-min Rain = 0
KLA1 121536Z 07007KT 10/M03 A304 RMK A01 T01011031  RH  039%=      5-min Rain = 0
KLA1 121537Z 06006KT 10/M03 A304 RMK A01 T01021031  RH  039%=      5-min Rain = 0
KLA1 121538Z 10006KT 10/M03 A304 RMK A01 T01021031  RH  039%=      5-min Rain = 0
KLA1 121539Z 08008KT 10/M03 A304 RMK A01 T01031031  RH  039%=      5-min Rain = 0
KLA1 121540Z 07007KT 10/M03 A304 RMK A01 T01031031  RH  039%=      5-min Rain = 0
KLA1 121541Z 08009KT 10/M03 A304 RMK A01 T01041031  RH  039%=      5-min Rain = 0
KLA1 121542Z 08008KT 10/M03 A304 RMK A01 T01031032  RH  039%=      5-min Rain = 0
KLA1 121543Z 08007KT 10/M03 A304 RMK A01 T01021033  RH  039%=      5-min Rain = 0
KLA1 121544Z 11006KT 10/M03 A304 RMK A01 T01011033  RH  039%=      5-min Rain = 0
KLA1 121545Z 10008KT 10/M03 A304 RMK A01 T01001033  RH  039%=      5-min Rain = 0
KLA1 121546Z 08006KT 10/M03 A304 RMK A01 T00991033  RH  039%=      5-min Rain = 0
KLA1 121547Z 07008KT 10/M03 A304 RMK A01 T01001033  RH  039%=      5-min Rain = 0
KLA1 121548Z 08006KT 10/M03 A3041 RMK A01 T01001032  RH  039%=      5-min Rain = 0
KLA1 121549Z 08005KT 10/M03 A3041 RMK A01 T01001032  RH  039%=      5-min Rain = 0
KLA1 121550Z 08004KT 10/M03 A3041 RMK A01 T01011032  RH  039%=      5-min Rain = 0
KLA1 121551Z 04005G10KT 10/M03 A3041 RMK A01 T01001032  RH  039%=      5-min Rain = 0
KLA1 121552Z 03007KT 10/M03 A3041 RMK A01 T01011032  RH  039%=      5-min Rain = 0
KLA1 121553Z 03006KT 10/M03 A3041 RMK A01 T01021032  RH  039%=      5-min Rain = 0
KLA1 121554Z 04007KT 10/M03 A304 RMK A01 T01041032  RH  038%=      5-min Rain = 0
KLA1 121555Z 04006KT 10/M03 A304 RMK A01 T01041032  RH  038%=      5-min Rain = 0
KLA1 121556Z 04005KT 10/M03 A304 RMK A01 T01041031  RH  038%=      5-min Rain = 0
KLA1 121557Z 05005KT 11/M03 A304 RMK A01 T01061029  RH  038%=      5-min Rain = 0
KLA1 121558Z 07006KT 11/M03 A304 RMK A01 T01091030  RH  038%=      5-min Rain = 0
KLA1 121559Z 07005KT 11/M03 A304 RMK A01 T01101031  RH  037%=      5-min Rain = 0
KLA1 121600Z 10005KT 11/M03 A304 RMK A01 T01101030  RH  037%=      5-min Rain = 0
KLA1 121601Z 11006KT 11/M03 A304 RMK A01 T01101031  RH  037%=      5-min Rain = 0
KLA1 121602Z 09004KT 11/M03 A304 RMK A01 T01111029  RH  037%=      5-min Rain = 0
KLA1 121603Z 11005KT 11/M03 A304 RMK A01 T01131030  RH  037%=      5-min Rain = 0
KLA1 121604Z 10004KT 11/M03 A304 RMK A01 T01121032  RH  036%=      5-min Rain = 0
KLA1 121605Z 09002KT 11/M03 A304 RMK A01 T01121030  RH  037%=      5-min Rain = 0
KLA1 121606Z 06002KT 12/M03 A304 RMK A01 T01151029  RH  036%=      5-min Rain = 0
KLA1 121607Z 10000KT 12/M03 A304 RMK A01 T01161031  RH  036%=      5-min Rain = 0
KLA1 121608Z 11004KT 12/M03 A304 RMK A01 T01161029  RH  036%=      5-min Rain = 0
KLA1 121609Z 08004KT 12/M03 A304 RMK A01 T01171030  RH  036%=      5-min Rain = 0
KLA1 121610Z 06006KT 12/M03 A304 RMK A01 T01171029  RH  036%=      5-min Rain = 0
KLA1 121611Z 07004KT 12/M03 A304 RMK A01 T01191029  RH  035%=      5-min Rain = 0
KLA1 121612Z 09007KT 12/M03 A304 RMK A01 T01191030  RH  035%=      5-min Rain = 0
KLA1 121613Z 09006KT 12/M03 A304 RMK A01 T01171032  RH  035%=      5-min Rain = 0
KLA1 121614Z 08005KT 11/M03 A304 RMK A01 T01141033  RH  036%=      5-min Rain = 0
KLA1 121615Z 08006KT 11/M03 A304 RMK A01 T01131031  RH  036%=      5-min Rain = 0
KLA1 121616Z 11007KT 12/M03 A304 RMK A01 T01151030  RH  036%=      5-min Rain = 0
KLA1 121617Z 11005KT 12/M03 A304 RMK A01 T01151032  RH  036%=      5-min Rain = 0
KLA1 121618Z 11004KT 12/M03 A304 RMK A01 T01151031  RH  036%=      5-min Rain = 0
KLA1 121619Z 09004KT 12/M03 A304 RMK A01 T01171031  RH  035%=      5-min Rain = 0
KLA1 121620Z 09006KT 12/M03 A304 RMK A01 T01181032  RH  035%=      5-min Rain = 0
KLA1 121621Z 10003KT 12/M03 A304 RMK A01 T01171032  RH  035%=      5-min Rain = 0
KLA1 121622Z 09005KT 12/M03 A304 RMK A01 T01181031  RH  035%=      5-min Rain = 0
KLA1 121623Z 09008KT 12/M03 A304 RMK A01 T01211030  RH  035%=      5-min Rain = 0
KLA1 121624Z 11007KT 12/M03 A304 RMK A01 T01211032  RH  034%=      5-min Rain = 0
KLA1 121625Z 11006KT 12/M03 A304 RMK A01 T01221032  RH  034%=      5-min Rain = 0
KLA1 121626Z 10006KT 12/M03 A304 RMK A01 T01211033  RH  034%=      5-min Rain = 0
KLA1 121627Z 07005KT 12/M03 A304 RMK A01 T01201031  RH  035%=      5-min Rain = 0
KLA1 121628Z 06001KT 12/M03 A304 RMK A01 T01201031  RH  035%=      5-min Rain = 0
KLA1 121629Z 08003KT 12/M03 A304 RMK A01 T01221030  RH  035%=      5-min Rain = 0
KLA1 121630Z 05004KT 13/M03 A304 RMK A01 T01251030  RH  034%=      5-min Rain = 0
KLA1 121631Z 07004KT 13/M03 A304 RMK A01 T01251033  RH  033%=      5-min Rain = 0
KLA1 121632Z 10003KT 12/M04 A304 RMK A01 T01211035  RH  034%=      5-min Rain = 0
KLA1 121633Z 12004KT 12/M03 A304 RMK A01 T01211032  RH  034%=      5-min Rain = 0
KLA1 121634Z 12006KT 12/M03 A304 RMK A01 T01231030  RH  034%=      5-min Rain = 0
KLA1 121635Z 11006KT 13/M03 A304 RMK A01 T01251032  RH  033%=      5-min Rain = 0
KLA1 121636Z 13004KT 12/M03 A304 RMK A01 T01221033  RH  034%=      5-min Rain = 0
KLA1 121637Z 12005KT 12/M03 A304 RMK A01 T01211032  RH  034%=      5-min Rain = 0
KLA1 121638Z 11005KT 12/M03 A304 RMK A01 T01211032  RH  034%=      5-min Rain = 0
KLA1 121639Z 14007KT 12/M03 A304 RMK A01 T01221033  RH  034%=      5-min Rain = 0
KLA1 121640Z 14006KT 12/M03 A3039 RMK A01 T01211033  RH  034%=      5-min Rain = 0
KLA1 121641Z 10004KT 12/M03 A3039 RMK A01 T01211032  RH  034%=      5-min Rain = 0
KLA1 121642Z 08003KT 12/M03 A3039 RMK A01 T01231030  RH  034%=      5-min Rain = 0
KLA1 121643Z 06002KT 13/M03 A3039 RMK A01 T01261030  RH  034%=      5-min Rain = 0
KLA1 121644Z 11001KT 13/M03 A3039 RMK A01 T01281031  RH  033%=      5-min Rain = 0
KLA1 121645Z 09002KT 13/M03 A3039 RMK A01 T01301030  RH  033%=      5-min Rain = 0
KLA1 121646Z 12005KT 13/M03 A3039 RMK A01 T01311029  RH  033%=      5-min Rain = 0
KLA1 121647Z 12008KT 13/M03 A3039 RMK A01 T01321030  RH  032%=      5-min Rain = 0
KLA1 121648Z 12005KT 13/M03 A3039 RMK A01 T01291033  RH  032%=      5-min Rain = 0
KLA1 121649Z 15004KT 12/M04 A3039 RMK A01 T01241035  RH  033%=      5-min Rain = 0
KLA1 121650Z 13004KT 12/M03 A3039 RMK A01 T01231034  RH  033%=      5-min Rain = 0
KLA1 121651Z 14003KT 12/M03 A3039 RMK A01 T01231034  RH  033%=      5-min Rain = 0
KLA1 121652Z 09002KT 12/M03 A3039 RMK A01 T01241033  RH  033%=      5-min Rain = 0
KLA1 121653Z 11006G11KT 13/M03 A3039 RMK A01 T01271031  RH  033%=      5-min Rain = 0
KLA1 121654Z 12009KT 13/M03 A3039 RMK A01 T01281033  RH  032%=      5-min Rain = 0
KLA1 121655Z 13007KT 13/M03 A3039 RMK A01 T01281032  RH  033%=      5-min Rain = 0
KLA1 121656Z 15007KT 13/M03 A3038 RMK A01 T01271032  RH  033%=      5-min Rain = 0
KLA1 121657Z 14006KT 13/M03 A3038 RMK A01 T01281032  RH  033%=      5-min Rain = 0
KLA1 121658Z 13002KT 13/M03 A3038 RMK A01 T01271033  RH  033%=      5-min Rain = 0
KLA1 121659Z 06001KT 13/M03 A3038 RMK A01 T01261032  RH  033%=      5-min Rain = 0
KLA1 121700Z 09002KT 13/M03 A3039 RMK A01 T01271031  RH  033%=      5-min Rain = 0
KLA1 121701Z 07004KT 13/M03 A3039 RMK A01 T01291031  RH  033%=      5-min Rain = 0
KLA1 121702Z 06005KT 13/M03 A3039 RMK A01 T01301031  RH  033%=      5-min Rain = 0
KLA1 121703Z 08003KT 13/M03 A3039 RMK A01 T01301031  RH  033%=      5-min Rain = 0
KLA1 121704Z 09004KT 13/M03 A3039 RMK A01 T01291032  RH  033%=      5-min Rain = 0
KLA1 121705Z 06007KT 13/M03 A3038 RMK A01 T01281032  RH  033%=      5-min Rain = 0
KLA1 121706Z 06006KT 13/M03 A3038 RMK A01 T01291032  RH  032%=      5-min Rain = 0
KLA1 121707Z 05004G9KT 13/M03 A3038 RMK A01 T01291032  RH  033%=      5-min Rain = 0
KLA1 121708Z 03006KT 13/M03 A3038 RMK A01 T01291031  RH  033%=      5-min Rain = 0
KLA1 121709Z 02007KT 13/M03 A3038 RMK A01 T01301032  RH  032%=      5-min Rain = 0
KLA1 121710Z 00005KT 13/M03 A3038 RMK A01 T01301032  RH  032%=      5-min Rain = 0
KLA1 121711Z 01002KT 13/M03 A3038 RMK A01 T01311031  RH  032%=      5-min Rain = 0
KLA1 121712Z 07004KT 13/M03 A3038 RMK A01 T01321030  RH  032%=      5-min Rain = 0
KLA1 121713Z 12004KT 14/M03 A3039 RMK A01 T01361028  RH  032%=      5-min Rain = 0
KLA1 121714Z 13002KT 14/M03 A3039 RMK A01 T01371030  RH  031%=      5-min Rain = 0
KLA1 121715Z 14003KT 14/M03 A3038 RMK A01 T01361031  RH  031%=      5-min Rain = 0
KLA1 121716Z 11003KT 14/M03 A3038 RMK A01 T01361031  RH  031%=      5-min Rain = 0
KLA1 121717Z 12001KT 14/M03 A3038 RMK A01 T01371029  RH  032%=      5-min Rain = 0
KLA1 121718Z 14001KT 14/M03 A3038 RMK A01 T01391028  RH  031%=      5-min Rain = 0
KLA1 121719Z 10005KT 14/M03 A3038 RMK A01 T01411029  RH  031%=      5-min Rain = 0
KLA1 121720Z 08006KT 14/M03 A3038 RMK A01 T01421029  RH  030%=      5-min Rain = 0
KLA1 121721Z 08005KT 14/M03 A3038 RMK A01 T01411030  RH  031%=      5-min Rain = 0
KLA1 121722Z 05001KT 14/M03 A3038 RMK A01 T01391029  RH  031%=      5-min Rain = 0
KLA1 121723Z 06001KT 14/M03 A3038 RMK A01 T01401029  RH  031%=      5-min Rain = 0
KLA1 121724Z 05003KT 14/M03 A3038 RMK A01 T01401030  RH  030%=      5-min Rain = 0
KLA1 121725Z 06005KT 14/M03 A3038 RMK A01 T01401031  RH  030%=      5-min Rain = 0
KLA1 121726Z 08007KT 14/M03 A3038 RMK A01 T01441030  RH  030%=      5-min Rain = 0
KLA1 121727Z 07005KT 14/M03 A3038 RMK A01 T01421034  RH  029%=      5-min Rain = 0
KLA1 121728Z 05004KT 14/M04 A3038 RMK A01 T01411035  RH  029%=      5-min Rain = 0
KLA1 121729Z 05003KT 14/M03 A3038 RMK A01 T01401034  RH  030%=      5-min Rain = 0
KLA1 121730Z 06008KT 14/M03 A3038 RMK A01 T01441031  RH  030%=      5-min Rain = 0
KLA1 121731Z 05006KT 14/M04 A3038 RMK A01 T01441035  RH  029%=      5-min Rain = 0
KLA1 121732Z 06007KT 14/M04 A3038 RMK A01 T01411035  RH  029%=      5-min Rain = 0
KLA1 121733Z 06007KT 14/M03 A3038 RMK A01 T01411034  RH  030%=      5-min Rain = 0
KLA1 121734Z 06006KT 14/M04 A3037 RMK A01 T01411038  RH  029%=      5-min Rain = 0
KLA1 121735Z 03005KT 14/M04 A3037 RMK A01 T01391040  RH  029%=      5-min Rain = 0
KLA1 121736Z 03004KT 14/M04 A3037 RMK A01 T01391040  RH  029%=      5-min Rain = 0
KLA1 121737Z 05007KT 14/M04 A3037 RMK A01 T01381039  RH  029%=      5-min Rain = 0
KLA1 121738Z 05008KT 14/M04 A3037 RMK A01 T01391037  RH  029%=      5-min Rain = 0
KLA1 121739Z 04010KT 14/M04 A3037 RMK A01 T01411035  RH  029%=      5-min Rain = 0
KLA1 121740Z 05007KT 14/M04 A3037 RMK A01 T01421035  RH  029%=      5-min Rain = 0
KLA1 121741Z 07005KT 14/M04 A3037 RMK A01 T01401037  RH  029%=      5-min Rain = 0
KLA1 121742Z 05004KT 14/M04 A3037 RMK A01 T01401038  RH  029%=      5-min Rain = 0
KLA1 121743Z 01003KT 14/M04 A3037 RMK A01 T01401039  RH  029%=      5-min Rain = 0
KLA1 121744Z 04003KT 14/M04 A3036 RMK A01 T01391039  RH  029%=      5-min Rain = 0
KLA1 121745Z 08003KT 14/M04 A3036 RMK A01 T01381039  RH  029%=      5-min Rain = 0
KLA1 121746Z 06004KT 14/M04 A3036 RMK A01 T01391037  RH  029%=      5-min Rain = 0
KLA1 121747Z 10002KT 14/M04 A3036 RMK A01 T01391039  RH  029%=      5-min Rain = 0
KLA1 121748Z 10007KT 14/M04 A3036 RMK A01 T01381038  RH  029%=      5-min Rain = 0
KLA1 121749Z 09006KT 14/M04 A3036 RMK A01 T01401036  RH  029%=      5-min Rain = 0
KLA1 121750Z 08007KT 14/M04 A3036 RMK A01 T01431035  RH  029%=      5-min Rain = 0
KLA1 121751Z 09006KT 14/M04 A3036 RMK A01 T01431035  RH  029%=      5-min Rain = 0
KLA1 121752Z 06003KT 14/M03 A3036 RMK A01 T01441034  RH  029%=      5-min Rain = 0
KLA1 121753Z 27002KT 14/M04 A3036 RMK A01 T01421036  RH  029%=      5-min Rain = 0
KLA1 121754Z 13003G8KT 14/M04 A3036 RMK A01 T01401035  RH  030%=      5-min Rain = 0
KLA1 121755Z 09003KT 14/M03 A3036 RMK A01 T01411033  RH  030%=      5-min Rain = 0
KLA1 121756Z 08002KT 14/M03 A3036 RMK A01 T01441034  RH  029%=      5-min Rain = 0
KLA1 121757Z 06002KT 14/M03 A3036 RMK A01 T01441034  RH  029%=      5-min Rain = 0
KLA1 121758Z 03003KT 15/M03 A3036 RMK A01 T01461033  RH  029%=      5-min Rain = 0
KLA1 121759Z 07002KT 15/M03 A3036 RMK A01 T01481034  RH  028%=      5-min Rain = 0
KLA1 121800Z 07003KT 15/M03 A3036 RMK A01 T01491033  RH  028%=      5-min Rain = 0
KLA1 121801Z 08003KT 15/M03 A3036 RMK A01 T01501034  RH  028%=      5-min Rain = 0
KLA1 121802Z 10003KT 15/M03 A3036 RMK A01 T01501034  RH  028%=      5-min Rain = 0
KLA1 121803Z 14003KT 15/M04 A3036 RMK A01 T01481036  RH  028%=      5-min Rain = 0
KLA1 121804Z 11004KT 15/M04 A3035 RMK A01 T01471036  RH  028%=      5-min Rain = 0
KLA1 121805Z 12001KT 15/M04 A3035 RMK A01 T01451037  RH  028%=      5-min Rain = 0
KLA1 121806Z 10001KT 15/M04 A3035 RMK A01 T01451037  RH  028%=      5-min Rain = 0
KLA1 121807Z 08005G10KT 15/M04 A3035 RMK A01 T01471035  RH  028%=      5-min Rain = 0
KLA1 121808Z 08007KT 15/M04 A3035 RMK A01 T01521035  RH  027%=      5-min Rain = 0
KLA1 121809Z 09006KT 16/M04 A3035 RMK A01 T01561037  RH  026%=      5-min Rain = 0
KLA1 121810Z 11008KT 16/M04 A3035 RMK A01 T01591038  RH  025%=      5-min Rain = 0
KLA1 121811Z 12009KT 16/M04 A3035 RMK A01 T01601042  RH  025%=      5-min Rain = 0
KLA1 121812Z 11005KT 15/M04 A3035 RMK A01 T01541044  RH  025%=      5-min Rain = 0
KLA1 121813Z 11005KT 15/M04 A3035 RMK A01 T01501044  RH  026%=      5-min Rain = 0
KLA1 121814Z 11007KT 15/M04 A3035 RMK A01 T01481044  RH  026%=      5-min Rain = 0
KLA1 121815Z 07003KT 15/M04 A3035 RMK A01 T01471043  RH  027%=      5-min Rain = 0
KLA1 121816Z 11004KT 15/M04 A3035 RMK A01 T01481044  RH  026%=      5-min Rain = 0
KLA1 121817Z 15005KT 15/M04 A3034 RMK A01 T01491040  RH  027%=      5-min Rain = 0
KLA1 121818Z 14005KT 15/M04 A3034 RMK A01 T01511043  RH  026%=      5-min Rain = 0
KLA1 121819Z 13007KT 15/M04 A3034 RMK A01 T01541039  RH  026%=      5-min Rain = 0
KLA1 121820Z 13008KT 16/M04 A3034 RMK A01 T01581040  RH  025%=      5-min Rain = 0
KLA1 121821Z 13006KT 16/M04 A3034 RMK A01 T01571042  RH  025%=      5-min Rain = 0
KLA1 121822Z 10006KT 16/M04 A3034 RMK A01 T01551044  RH  025%=      5-min Rain = 0
KLA1 121823Z 10005KT 15/M05 A3034 RMK A01 T01521045  RH  025%=      5-min Rain = 0
KLA1 121824Z 13003KT 15/M05 A3034 RMK A01 T01521045  RH  025%=      5-min Rain = 0
KLA1 121825Z 17002KT 15/M05 A3034 RMK A01 T01521046  RH  025%=      5-min Rain = 0
KLA1 121826Z 12003G8KT 15/M04 A3034 RMK A01 T01511043  RH  026%=      5-min Rain = 0
KLA1 121827Z 12006KT 15/M04 A3034 RMK A01 T01531041  RH  026%=      5-min Rain = 0
KLA1 121828Z 13006KT 16/M04 A3034 RMK A01 T01561041  RH  026%=      5-min Rain = 0
KLA1 121829Z 13009KT 16/M04 A3034 RMK A01 T01561041  RH  026%=      5-min Rain = 0
KLA1 121830Z 13006KT 15/M04 A3034 RMK A01 T01541042  RH  026%=      5-min Rain = 0
KLA1 121831Z 13005KT 15/M04 A3034 RMK A01 T01511042  RH  026%=      5-min Rain = 0
KLA1 121832Z 14001KT 15/M04 A3034 RMK A01 T01491041  RH  027%=      5-min Rain = 0
KLA1 121833Z 21001KT 15/M04 A3034 RMK A01 T01481042  RH  027%=      5-min Rain = 0
KLA1 121834Z 23003KT 15/M04 A3033 RMK A01 T01471043  RH  027%=      5-min Rain = 0
KLA1 121835Z 23003KT 15/M04 A3033 RMK A01 T01451043  RH  027%=      5-min Rain = 0
KLA1 121836Z 27003KT 15/M04 A3033 RMK A01 T01461041  RH  027%=      5-min Rain = 0
KLA1 121837Z 27002KT 15/M04 A3033 RMK A01 T01481041  RH  027%=      5-min Rain = 0
KLA1 121838Z 20002KT 15/M04 A3033 RMK A01 T01521039  RH  027%=      5-min Rain = 0
KLA1 121839Z 19003KT 16/M04 A3033 RMK A01 T01561037  RH  026%=      5-min Rain = 0
KLA1 121840Z 16004KT 16/M04 A3032 RMK A01 T01591037  RH  026%=      5-min Rain = 0
KLA1 121841Z 03002KT 16/M04 A3032 RMK A01 T01611036  RH  026%=      5-min Rain = 0
KLA1 121842Z 04005KT 16/M04 A3032 RMK A01 T01621040  RH  025%=      5-min Rain = 0
KLA1 121843Z 04006KT 16/M04 A3032 RMK A01 T01601041  RH  025%=      5-min Rain = 0
KLA1 121844Z 05006KT 16/M04 A3032 RMK A01 T01591041  RH  025%=      5-min Rain = 0
KLA1 121845Z 05004KT 16/M04 A3032 RMK A01 T01561042  RH  025%=      5-min Rain = 0
KLA1 121846Z 08005KT 16/M04 A3032 RMK A01 T01561041  RH  026%=      5-min Rain = 0
KLA1 121847Z 10003KT 16/M04 A3032 RMK A01 T01561043  RH  025%=      5-min Rain = 0
KLA1 121848Z 09005KT 16/M04 A3032 RMK A01 T01561043  RH  025%=      5-min Rain = 0
KLA1 121849Z 05005G10KT 16/M04 A3032 RMK A01 T01581041  RH  025%=      5-min Rain = 0
KLA1 121850Z 05007KT 16/M04 A3032 RMK A01 T01591043  RH  025%=      5-min Rain = 0
KLA1 121851Z 10006G14KT 16/M04 A3032 RMK A01 T01591042  RH  025%=      5-min Rain = 0
KLA1 121852Z 10010KT 16/M04 A3031 RMK A01 T01631038  RH  025%=      5-min Rain = 0
KLA1 121853Z 05006KT 17/M04 A3032 RMK A01 T01651040  RH  024%=      5-min Rain = 0
KLA1 121854Z 05006KT 16/M04 A3031 RMK A01 T01641040  RH  024%=      5-min Rain = 0
KLA1 121855Z 09005KT 16/M04 A3031 RMK A01 T01621042  RH  024%=      5-min Rain = 0
KLA1 121856Z 10005KT 16/M04 A3031 RMK A01 T01621044  RH  024%=      5-min Rain = 0
KLA1 121857Z 10005KT 16/M04 A3031 RMK A01 T01611043  RH  024%=      5-min Rain = 0
KLA1 121858Z 07003KT 16/M04 A3031 RMK A01 T01601041  RH  025%=      5-min Rain = 0
KLA1 121859Z 10004KT 16/M04 A3031 RMK A01 T01601041  RH  025%=      5-min Rain = 0
KLA1 121900Z 13002KT 16/M04 A3031 RMK A01 T01591043  RH  025%=      5-min Rain = 0
KLA1 121901Z 12002KT 16/M04 A3031 RMK A01 T01571042  RH  025%=      5-min Rain = 0
KLA1 121902Z 17001KT 16/M04 A3031 RMK A01 T01571044  RH  025%=      5-min Rain = 0
KLA1 121903Z 01002G7KT 16/M04 A3031 RMK A01 T01571043  RH  025%=      5-min Rain = 0
KLA1 121904Z 00007KT 16/M04 A3031 RMK A01 T01591044  RH  024%=      5-min Rain = 0
KLA1 121905Z 34005KT 16/M05 A3031 RMK A01 T01601045  RH  024%=      5-min Rain = 0
KLA1 121906Z 35004KT 16/M05 A303 RMK A01 T01601045  RH  024%=      5-min Rain = 0
KLA1 121907Z 03003KT 16/M05 A303 RMK A01 T01581046  RH  024%=      5-min Rain = 0
KLA1 121908Z 01002KT 16/M04 A303 RMK A01 T01571044  RH  025%=      5-min Rain = 0
KLA1 121909Z 03001KT 16/M05 A303 RMK A01 T01581045  RH  025%=      5-min Rain = 0
KLA1 121910Z 11004KT 16/M04 A303 RMK A01 T01581044  RH  025%=      5-min Rain = 0
KLA1 121911Z 10007KT 16/M04 A303 RMK A01 T01611043  RH  024%=      5-min Rain = 0
KLA1 121912Z 11007KT 16/M04 A303 RMK A01 T01621044  RH  024%=      5-min Rain = 0
KLA1 121913Z 09004KT 16/M05 A303 RMK A01 T01601046  RH  024%=      5-min Rain = 0
KLA1 121914Z 10004KT 16/M05 A303 RMK A01 T01591046  RH  024%=      5-min Rain = 0
KLA1 121915Z 08003KT 16/M05 A303 RMK A01 T01581046  RH  024%=      5-min Rain = 0
KLA1 121916Z 06005KT 16/M04 A303 RMK A01 T01601044  RH  024%=      5-min Rain = 0
KLA1 121917Z 05007KT 16/M05 A303 RMK A01 T01631045  RH  024%=      5-min Rain = 0
KLA1 121918Z 06006KT 16/M04 A303 RMK A01 T01631044  RH  024%=      5-min Rain = 0
KLA1 121919Z 03007KT 16/M04 A303 RMK A01 T01631044  RH  024%=      5-min Rain = 0
KLA1 121920Z 01006KT 17/M04 A303 RMK A01 T01651044  RH  024%=      5-min Rain = 0
KLA1 121921Z 07004KT 17/M05 A303 RMK A01 T01651045  RH  023%=      5-min Rain = 0
KLA1 121922Z 07007KT 17/M05 A303 RMK A01 T01651046  RH  023%=      5-min Rain = 0
KLA1 121923Z 07007KT 17/M05 A303 RMK A01 T01671048  RH  023%=      5-min Rain = 0
KLA1 121924Z 08003KT 16/M05 A3029 RMK A01 T01641053  RH  022%=      5-min Rain = 0
KLA1 121925Z 07002KT 16/M05 A3029 RMK A01 T01611051  RH  023%=      5-min Rain = 0
KLA1 121926Z 03003KT 16/M05 A3029 RMK A01 T01631046  RH  023%=      5-min Rain = 0
KLA1 121927Z 02004KT 17/M05 A3029 RMK A01 T01671047  RH  023%=      5-min Rain = 0
KLA1 121928Z 00007KT 17/M05 A3029 RMK A01 T01681048  RH  022%=      5-min Rain = 0
KLA1 121929Z 35005KT 17/M05 A3029 RMK A01 T01691048  RH  022%=      5-min Rain = 0
KLA1 121930Z 00005KT 17/M05 A3029 RMK A01 T01691046  RH  023%=      5-min Rain = 0
KLA1 121931Z 00002KT 17/M05 A3029 RMK A01 T01671046  RH  023%=      5-min Rain = 0
KLA1 121932Z 35002KT 17/M04 A3029 RMK A01 T01651044  RH  024%=      5-min Rain = 0
KLA1 121933Z 01003KT 16/M04 A3029 RMK A01 T01641044  RH  024%=      5-min Rain = 0
KLA1 121934Z 02006KT 16/M04 A3029 RMK A01 T01631043  RH  024%=      5-min Rain = 0
KLA1 121935Z 03006KT 17/M04 A3029 RMK A01 T01651040  RH  024%=      5-min Rain = 0
KLA1 121936Z 02005KT 17/M04 A3029 RMK A01 T01671042  RH  024%=      5-min Rain = 0
KLA1 121937Z 36003KT 17/M04 A3028 RMK A01 T01671041  RH  024%=      5-min Rain = 0
KLA1 121938Z 00002KT 17/M04 A3028 RMK A01 T01681042  RH  023%=      5-min Rain = 0
KLA1 121939Z 01003KT 17/M04 A3028 RMK A01 T01691039  RH  024%=      5-min Rain = 0
KLA1 121940Z 03005KT 17/M04 A3028 RMK A01 T01741037  RH  023%=      5-min Rain = 0
KLA1 121941Z 09009KT 18/M04 A3028 RMK A01 T01761040  RH  023%=      5-min Rain = 0
KLA1 121942Z 14009KT 17/M04 A3028 RMK A01 T01731043  RH  023%=      5-min Rain = 0
KLA1 121943Z 13005KT 17/M04 A3028 RMK A01 T01691044  RH  023%=      5-min Rain = 0
KLA1 121944Z 14002KT 17/M04 A3028 RMK A01 T01671044  RH  023%=      5-min Rain = 0
KLA1 121945Z 09004G10KT 17/M04 A3028 RMK A01 T01661043  RH  023%=      5-min Rain = 0
KLA1 121946Z 09008KT 17/M04 A3028 RMK A01 T01671044  RH  023%=      5-min Rain = 0
KLA1 121947Z 07004KT 17/M04 A3028 RMK A01 T01671043  RH  023%=      5-min Rain = 0
KLA1 121948Z 11007G13KT 17/M04 A3028 RMK A01 T01671043  RH  024%=      5-min Rain = 0
KLA1 121949Z 14007KT 17/M04 A3028 RMK A01 T01691043  RH  023%=      5-min Rain = 0
KLA1 121950Z 08004KT 17/M04 A3028 RMK A01 T01691043  RH  023%=      5-min Rain = 0
KLA1 121951Z 06005KT 17/M05 A3028 RMK A01 T01681045  RH  023%=      5-min Rain = 0
KLA1 121952Z 06005KT 17/M04 A3028 RMK A01 T01681044  RH  023%=      5-min Rain = 0
KLA1 121953Z 08004KT 17/M05 A3028 RMK A01 T01681045  RH  023%=      5-min Rain = 0
KLA1 121954Z 08005KT 17/M05 A3028 RMK A01 T01671046  RH  023%=      5-min Rain = 0
KLA1 121955Z 05003KT 17/M05 A3028 RMK A01 T01661047  RH  023%=      5-min Rain = 0
KLA1 121956Z 04003KT 16/M05 A3028 RMK A01 T01641047  RH  023%=      5-min Rain = 0
KLA1 121957Z 04007KT 17/M05 A3028 RMK A01 T01651046  RH  023%=      5-min Rain = 0
KLA1 121958Z 34003KT 17/M05 A3027 RMK A01 T01661047  RH  023%=      5-min Rain = 0
KLA1 121959Z 06003KT 17/M05 A3027 RMK A01 T01661047  RH  023%=      5-min Rain = 0
KLA1 122000Z 04005KT 17/M05 A3027 RMK A01 T01661046  RH  023%=      5-min Rain = 0
KLA1 122001Z 04005KT 17/M05 A3027 RMK A01 T01671046  RH  023%=      5-min Rain = 0
KLA1 122002Z 03004KT 17/M05 A3027 RMK A01 T01661048  RH  023%=      5-min Rain = 0
KLA1 122003Z 02003KT 17/M05 A3027 RMK A01 T01651047  RH  023%=      5-min Rain = 0
KLA1 122004Z 10003KT 17/M05 A3027 RMK A01 T01671046  RH  023%=      5-min Rain = 0
KLA1 122005Z 14005KT 17/M05 A3027 RMK A01 T01681048  RH  022%=      5-min Rain = 0
KLA1 122006Z 16009G14KT 17/M05 A3027 RMK A01 T01691048  RH  022%=      5-min Rain = 0
KLA1 122007Z 15009KT 17/M05 A3027 RMK A01 T01691048  RH  022%=      5-min Rain = 0
KLA1 122008Z 14004KT 17/M05 A3027 RMK A01 T01671051  RH  022%=      5-min Rain = 0
KLA1 122009Z 12001KT 17/M05 A3027 RMK A01 T01671049  RH  022%=      5-min Rain = 0
KLA1 122010Z 15004KT 17/M05 A3027 RMK A01 T01691050  RH  022%=      5-min Rain = 0
KLA1 122011Z 13004KT 17/M05 A3027 RMK A01 T01691052  RH  022%=      5-min Rain = 0
KLA1 122012Z 08007KT 17/M05 A3027 RMK A01 T01671051  RH  022%=      5-min Rain = 0
KLA1 122013Z 11007KT 17/M05 A3027 RMK A01 T01681049  RH  022%=      5-min Rain = 0
KLA1 122014Z 13004KT 17/M05 A3027 RMK A01 T01691051  RH  022%=      5-min Rain = 0
KLA1 122015Z 06003KT 17/M05 A3027 RMK A01 T01681053  RH  022%=      5-min Rain = 0
KLA1 122016Z 11002KT 17/M05 A3026 RMK A01 T01671053  RH  022%=      5-min Rain = 0
KLA1 122017Z 14001KT 17/M05 A3026 RMK A01 T01661054  RH  022%=      5-min Rain = 0
KLA1 122018Z 08002KT 17/M05 A3026 RMK A01 T01661053  RH  022%=      5-min Rain = 0
KLA1 122019Z 07004KT 17/M05 A3026 RMK A01 T01681051  RH  022%=      5-min Rain = 0
KLA1 122020Z 07007KT 17/M05 A3026 RMK A01 T01691054  RH  021%=      5-min Rain = 0
KLA1 122021Z 08005KT 17/M06 A3026 RMK A01 T01691055  RH  021%=      5-min Rain = 0
KLA1 122022Z 04003KT 17/M06 A3026 RMK A01 T01691055  RH  021%=      5-min Rain = 0
KLA1 122023Z 07002KT 17/M05 A3026 RMK A01 T01681053  RH  022%=      5-min Rain = 0
KLA1 122024Z 14005KT 17/M05 A3026 RMK A01 T01711052  RH  021%=      5-min Rain = 0
KLA1 122025Z 18004KT 17/M06 A3026 RMK A01 T01701055  RH  021%=      5-min Rain = 0
KLA1 122026Z 23001KT 17/M05 A3026 RMK A01 T01681054  RH  021%=      5-min Rain = 0
KLA1 122027Z 25003KT 17/M05 A3026 RMK A01 T01681054  RH  021%=      5-min Rain = 0
KLA1 122028Z 14003KT 17/M05 A3026 RMK A01 T01701052  RH  021%=      5-min Rain = 0
KLA1 122029Z 14003KT 17/M05 A3026 RMK A01 T01741052  RH  021%=      5-min Rain = 0
KLA1 122030Z 14004KT 18/M05 A3026 RMK A01 T01751053  RH  021%=      5-min Rain = 0
KLA1 122031Z 11005KT 18/M05 A3026 RMK A01 T01751054  RH  020%=      5-min Rain = 0
KLA1 122032Z 07006KT 18/M05 A3026 RMK A01 T01781053  RH  020%=      5-min Rain = 0
KLA1 122033Z 08005KT 18/M05 A3026 RMK A01 T01791054  RH  020%=      5-min Rain = 0
KLA1 122034Z 06007KT 18/M05 A3026 RMK A01 T01811053  RH  020%=      5-min Rain = 0
KLA1 122035Z 06009KT 18/M05 A3025 RMK A01 T01821053  RH  020%=      5-min Rain = 0
KLA1 122036Z 07009KT 18/M06 A3026 RMK A01 T01811055  RH  019%=      5-min Rain = 0
KLA1 122037Z 04006KT 18/M06 A3026 RMK A01 T01771059  RH  020%=      5-min Rain = 0
KLA1 122038Z 06003KT 17/M06 A3025 RMK A01 T01741060  RH  020%=      5-min Rain = 0
KLA1 122039Z 11006G12KT 17/M06 A3025 RMK A01 T01721058  RH  020%=      5-min Rain = 0
KLA1 122040Z 11009KT 18/M06 A3025 RMK A01 T01751057  RH  020%=      5-min Rain = 0
KLA1 122041Z 08006KT 18/M06 A3025 RMK A01 T01751057  RH  020%=      5-min Rain = 0
KLA1 122042Z 05003KT 18/M06 A3025 RMK A01 T01751058  RH  020%=      5-min Rain = 0
KLA1 122043Z 14004G9KT 17/M06 A3025 RMK A01 T01731059  RH  020%=      5-min Rain = 0
KLA1 122044Z 12010KT 17/M06 A3025 RMK A01 T01721060  RH  020%=      5-min Rain = 0
KLA1 122045Z 11007KT 17/M06 A3025 RMK A01 T01721064  RH  019%=      5-min Rain = 0
KLA1 122046Z 12006KT 17/M06 A3025 RMK A01 T01711062  RH  020%=      5-min Rain = 0
KLA1 122047Z 08004KT 17/M06 A3026 RMK A01 T01731061  RH  020%=      5-min Rain = 0
KLA1 122048Z 09004KT 17/M06 A3026 RMK A01 T01741063  RH  019%=      5-min Rain = 0
KLA1 122049Z 16005KT 17/M06 A3026 RMK A01 T01741059  RH  020%=      5-min Rain = 0
KLA1 122050Z 16005KT 18/M06 A3026 RMK A01 T01751061  RH  019%=      5-min Rain = 0
KLA1 122051Z 16003KT 18/M06 A3025 RMK A01 T01751062  RH  019%=      5-min Rain = 0
KLA1 122052Z 11005KT 17/M06 A3025 RMK A01 T01741061  RH  019%=      5-min Rain = 0
KLA1 122053Z 10003KT 17/M07 A3025 RMK A01 T01731065  RH  019%=      5-min Rain = 0
KLA1 122054Z 07002KT 17/M06 A3025 RMK A01 T01711064  RH  019%=      5-min Rain = 0
KLA1 122055Z 04002KT 17/M06 A3025 RMK A01 T01731061  RH  020%=      5-min Rain = 0
KLA1 122056Z 07001KT 18/M06 A3025 RMK A01 T01761062  RH  019%=      5-min Rain = 0
KLA1 122057Z 11003KT 18/M06 A3025 RMK A01 T01771063  RH  019%=      5-min Rain = 0
KLA1 122058Z 15006KT 18/M06 A3024 RMK A01 T01771062  RH  019%=      5-min Rain = 0
KLA1 122059Z 13008KT 18/M06 A3025 RMK A01 T01801062  RH  019%=      5-min Rain = 0
KLA1 122100Z 14007KT 18/M06 A3024 RMK A01 T01811064  RH  018%=      5-min Rain = 0
KLA1 122101Z 14008KT 18/M06 A3024 RMK A01 T01841062  RH  018%=      5-min Rain = 0
KLA1 122102Z 15005KT 18/M06 A3024 RMK A01 T01841064  RH  018%=      5-min Rain = 0
KLA1 122103Z 15006KT 18/M06 A3025 RMK A01 T01831062  RH  018%=      5-min Rain = 0
KLA1 122104Z 15003KT 18/M06 A3025 RMK A01 T01821063  RH  018%=      5-min Rain = 0
KLA1 122105Z 16002KT 18/M06 A3025 RMK A01 T01811063  RH  018%=      5-min Rain = 0
KLA1 122106Z 18003KT 18/M06 A3025 RMK A01 T01811063  RH  019%=      5-min Rain = 0
KLA1 122107Z 18002KT 18/M06 A3025 RMK A01 T01791063  RH  019%=      5-min Rain = 0
KLA1 122108Z 22001KT 18/M06 A3024 RMK A01 T01771063  RH  019%=      5-min Rain = 0
KLA1 122109Z 11006KT 18/M06 A3025 RMK A01 T01781060  RH  019%=      5-min Rain = 0
KLA1 122110Z 09005KT 18/M06 A3025 RMK A01 T01801064  RH  018%=      5-min Rain = 0
KLA1 122111Z 11004KT 18/M06 A3025 RMK A01 T01811063  RH  018%=      5-min Rain = 0
KLA1 122112Z 10005KT 18/M06 A3025 RMK A01 T01831063  RH  018%=      5-min Rain = 0
KLA1 122113Z 11006KT 18/M06 A3025 RMK A01 T01811064  RH  018%=      5-min Rain = 0
KLA1 122114Z 09006KT 18/M06 A3025 RMK A01 T01791062  RH  019%=      5-min Rain = 0
KLA1 122115Z 07001KT 18/M06 A3024 RMK A01 T01791062  RH  019%=      5-min Rain = 0
KLA1 122116Z 05003KT 18/M06 A3024 RMK A01 T01801060  RH  019%=      5-min Rain = 0
KLA1 122117Z 04002KT 18/M06 A3024 RMK A01 T01801061  RH  019%=      5-min Rain = 0
KLA1 122118Z 10003KT 18/M06 A3024 RMK A01 T01781061  RH  019%=      5-min Rain = 0
KLA1 122119Z 10006KT 18/M06 A3024 RMK A01 T01811058  RH  019%=      5-min Rain = 0
KLA1 122120Z 09006KT 18/M06 A3024 RMK A01 T01831060  RH  019%=      5-min Rain = 0
KLA1 122121Z 09006KT 19/M06 A3024 RMK A01 T01851059  RH  018%=      5-min Rain = 0
KLA1 122122Z 11006KT 18/M06 A3024 RMK A01 T01831062  RH  018%=      5-min Rain = 0
KLA1 122123Z 11003KT 18/M06 A3023 RMK A01 T01791063  RH  019%=      5-min Rain = 0
KLA1 122124Z 09004KT 18/M06 A3023 RMK A01 T01781060  RH  019%=      5-min Rain = 0
KLA1 122125Z 13005KT 18/M06 A3023 RMK A01 T01791057  RH  019%=      5-min Rain = 0
KLA1 122126Z 13002KT 18/M06 A3023 RMK A01 T01801057  RH  020%=      5-min Rain = 0
KLA1 122127Z 11003KT 18/M06 A3023 RMK A01 T01791059  RH  019%=      5-min Rain = 0
KLA1 122128Z 25002KT 18/M06 A3023 RMK A01 T01781062  RH  019%=      5-min Rain = 0
KLA1 122129Z 14005KT 18/M06 A3023 RMK A01 T01781060  RH  019%=      5-min Rain = 0
KLA1 122130Z 13006KT 18/M06 A3023 RMK A01 T01801060  RH  019%=      5-min Rain = 0
KLA1 122131Z 13005KT 18/M06 A3023 RMK A01 T01801060  RH  019%=      5-min Rain = 0
KLA1 122132Z 15003KT 18/M06 A3023 RMK A01 T01791060  RH  019%=      5-min Rain = 0
KLA1 122133Z 15000KT 18/M06 A3022 RMK A01 T01781059  RH  019%=      5-min Rain = 0
KLA1 122134Z 07001KT 18/M06 A3022 RMK A01 T01791060  RH  019%=      5-min Rain = 0
KLA1 122135Z 16003KT 18/M06 A3022 RMK A01 T01801060  RH  019%=      5-min Rain = 0
KLA1 122136Z 20003KT 18/M06 A3022 RMK A01 T01811058  RH  019%=      5-min Rain = 0
KLA1 122137Z 12004KT 19/M06 A3022 RMK A01 T01861056  RH  019%=      5-min Rain = 0
KLA1 122138Z 08008KT 19/M06 A3022 RMK A01 T01861059  RH  018%=      5-min Rain = 0
KLA1 122139Z 04005KT 19/M06 A3022 RMK A01 T01861057  RH  019%=      5-min Rain = 0
KLA1 122140Z 06006KT 19/M06 A3022 RMK A01 T01881055  RH  019%=      5-min Rain = 0
KLA1 122141Z 06007KT 19/M06 A3022 RMK A01 T01901057  RH  018%=      5-min Rain = 0
KLA1 122142Z 09005KT 19/M06 A3022 RMK A01 T01871059  RH  018%=      5-min Rain = 0
KLA1 122143Z 05002KT 18/M06 A3022 RMK A01 T01831060  RH  019%=      5-min Rain = 0
KLA1 122144Z 03003KT 18/M06 A3022 RMK A01 T01831059  RH  019%=      5-min Rain = 0
KLA1 122145Z 03002KT 18/M06 A3022 RMK A01 T01821060  RH  019%=      5-min Rain = 0
KLA1 122146Z 11002KT 18/M06 A3022 RMK A01 T01831060  RH  019%=      5-min Rain = 0
KLA1 122147Z 06006G11KT 18/M06 A3022 RMK A01 T01831061  RH  018%=      5-min Rain = 0
KLA1 122148Z 07006KT 18/M06 A3021 RMK A01 T01841062  RH  018%=      5-min Rain = 0
KLA1 122149Z 07007KT 19/M06 A3021 RMK A01 T01871059  RH  018%=      5-min Rain = 0
KLA1 122150Z 06008KT 19/M06 A3021 RMK A01 T01901060  RH  018%=      5-min Rain = 0
KLA1 122151Z 04006KT 19/M06 A3021 RMK A01 T01891061  RH  018%=      5-min Rain = 0
KLA1 122152Z 03005KT 19/M06 A3021 RMK A01 T01861062  RH  018%=      5-min Rain = 0
KLA1 122153Z 06008KT 18/M06 A3021 RMK A01 T01841062  RH  018%=      5-min Rain = 0
KLA1 122154Z 09007KT 18/M06 A3021 RMK A01 T01841062  RH  018%=      5-min Rain = 0
KLA1 122155Z 08006KT 18/M06 A3021 RMK A01 T01831062  RH  018%=      5-min Rain = 0
KLA1 122156Z 08006KT 18/M06 A3021 RMK A01 T01811064  RH  018%=      5-min Rain = 0
KLA1 122157Z 07004KT 18/M06 A3021 RMK A01 T01791064  RH  019%=      5-min Rain = 0
KLA1 122158Z 03002KT 18/M06 A3021 RMK A01 T01781063  RH  019%=      5-min Rain = 0
KLA1 122159Z 04003KT 18/M06 A3021 RMK A01 T01781064  RH  019%=      5-min Rain = 0
KLA1 122200Z 36002KT 18/M06 A302 RMK A01 T01781062  RH  019%=      5-min Rain = 0
KLA1 122201Z 35002KT 18/M06 A302 RMK A01 T01781063  RH  019%=      5-min Rain = 0
KLA1 122202Z 06002KT 18/M06 A302 RMK A01 T01791062  RH  019%=      5-min Rain = 0
KLA1 122203Z 07003KT 18/M06 A302 RMK A01 T01791063  RH  019%=      5-min Rain = 0
KLA1 122204Z 12003KT 18/M06 A302 RMK A01 T01791063  RH  019%=      5-min Rain = 0
KLA1 122205Z 15002KT 18/M06 A302 RMK A01 T01791064  RH  019%=      5-min Rain = 0
KLA1 122206Z 17000KT 18/M06 A302 RMK A01 T01781063  RH  019%=      5-min Rain = 0
KLA1 122207Z 14002KT 18/M06 A302 RMK A01 T01781062  RH  019%=      5-min Rain = 0
KLA1 122208Z 13005KT 18/M06 A302 RMK A01 T01781060  RH  019%=      5-min Rain = 0
KLA1 122209Z 13006KT 18/M06 A302 RMK A01 T01791057  RH  020%=      5-min Rain = 0
KLA1 122210Z 12005KT 18/M06 A302 RMK A01 T01791057  RH  020%=      5-min Rain = 0
KLA1 122211Z 11005KT 18/M06 A302 RMK A01 T01801057  RH  020%=      5-min Rain = 0
KLA1 122212Z 14003KT 18/M06 A302 RMK A01 T01791058  RH  019%=      5-min Rain = 0
KLA1 122213Z 10008KT 18/M06 A302 RMK A01 T01781057  RH  020%=      5-min Rain = 0
KLA1 122214Z 11006KT 18/M06 A302 RMK A01 T01791057  RH  020%=      5-min Rain = 0
KLA1 122215Z 13006KT 18/M06 A302 RMK A01 T01801056  RH  020%=      5-min Rain = 0
KLA1 122216Z 12005KT 18/M06 A302 RMK A01 T01791057  RH  020%=      5-min Rain = 0
KLA1 122217Z 13005KT 18/M06 A302 RMK A01 T01781057  RH  020%=      5-min Rain = 0
KLA1 122218Z 15005KT 18/M06 A302 RMK A01 T01781057  RH  020%=      5-min Rain = 0
KLA1 122219Z 13004KT 18/M06 A302 RMK A01 T01781058  RH  020%=      5-min Rain = 0
KLA1 122220Z 09004KT 18/M06 A302 RMK A01 T01771058  RH  020%=      5-min Rain = 0
KLA1 122221Z 10003KT 18/M06 A302 RMK A01 T01771058  RH  020%=      5-min Rain = 0
KLA1 122222Z 08006KT 18/M06 A302 RMK A01 T01771058  RH  020%=      5-min Rain = 0
KLA1 122223Z 06005KT 18/M06 A302 RMK A01 T01771058  RH  020%=      5-min Rain = 0
KLA1 122224Z 07004KT 18/M06 A302 RMK A01 T01771058  RH  020%=      5-min Rain = 0
KLA1 122225Z 09008KT 18/M06 A302 RMK A01 T01781060  RH  019%=      5-min Rain = 0
KLA1 122226Z 10011KT 18/M06 A302 RMK A01 T01791062  RH  019%=      5-min Rain = 0
KLA1 122227Z 10010KT 18/M06 A302 RMK A01 T01791062  RH  019%=      5-min Rain = 0
KLA1 122228Z 10009KT 18/M06 A302 RMK A01 T01791061  RH  019%=      5-min Rain = 0
KLA1 122229Z 11006KT 18/M06 A302 RMK A01 T01791061  RH  019%=      5-min Rain = 0
KLA1 122230Z 11006KT 18/M06 A302 RMK A01 T01781061  RH  019%=      5-min Rain = 0
KLA1 122231Z 10007KT 18/M06 A302 RMK A01 T01791061  RH  019%=      5-min Rain = 0
KLA1 122232Z 07005KT 18/M06 A302 RMK A01 T01821058  RH  019%=      5-min Rain = 0
KLA1 122233Z 08005KT 19/M06 A302 RMK A01 T01851058  RH  019%=      5-min Rain = 0
KLA1 122234Z 09007KT 19/M06 A302 RMK A01 T01851060  RH  018%=      5-min Rain = 0
KLA1 122235Z 10004KT 18/M06 A302 RMK A01 T01821061  RH  019%=      5-min Rain = 0
KLA1 122236Z 09003KT 18/M06 A3019 RMK A01 T01791060  RH  019%=      5-min Rain = 0
KLA1 122237Z 11002KT 18/M06 A3019 RMK A01 T01791061  RH  019%=      5-min Rain = 0
KLA1 122238Z 11002KT 18/M06 A3019 RMK A01 T01791062  RH  019%=      5-min Rain = 0
KLA1 122239Z 05005KT 18/M06 A3019 RMK A01 T01801059  RH  019%=      5-min Rain = 0
KLA1 122240Z 06007KT 18/M06 A3019 RMK A01 T01821058  RH  019%=      5-min Rain = 0
KLA1 122241Z 08007KT 18/M06 A302 RMK A01 T01821059  RH  019%=      5-min Rain = 0
KLA1 122242Z 08006KT 18/M06 A302 RMK A01 T01811059  RH  019%=      5-min Rain = 0
KLA1 122243Z 10005KT 18/M06 A302 RMK A01 T01821058  RH  019%=      5-min Rain = 0
KLA1 122244Z 10004KT 18/M06 A3019 RMK A01 T01821059  RH  019%=      5-min Rain = 0
KLA1 122245Z 11003KT 18/M06 A3019 RMK A01 T01811060  RH  019%=      5-min Rain = 0
KLA1 122246Z 12005KT 18/M06 A3019 RMK A01 T01811060  RH  019%=      5-min Rain = 0
KLA1 122247Z 07003KT 18/M06 A3019 RMK A01 T01801062  RH  019%=      5-min Rain = 0
KLA1 122248Z 08005KT 18/M06 A3019 RMK A01 T01791062  RH  019%=      5-min Rain = 0
KLA1 122249Z 08007KT 18/M06 A3019 RMK A01 T01791061  RH  019%=      5-min Rain = 0
KLA1 122250Z 08007KT 18/M06 A3019 RMK A01 T01791061  RH  019%=      5-min Rain = 0
KLA1 122251Z 07006KT 18/M06 A3019 RMK A01 T01811060  RH  019%=      5-min Rain = 0
KLA1 122252Z 06004KT 18/M06 A3019 RMK A01 T01821060  RH  019%=      5-min Rain = 0
KLA1 122253Z 06004KT 18/M06 A3019 RMK A01 T01841060  RH  019%=      5-min Rain = 0
KLA1 122254Z 06005KT 18/M06 A3019 RMK A01 T01841060  RH  018%=      5-min Rain = 0
KLA1 122255Z 08007KT 18/M06 A3019 RMK A01 T01841060  RH  019%=      5-min Rain = 0
KLA1 122256Z 08005KT 18/M06 A3019 RMK A01 T01831061  RH  018%=      5-min Rain = 0
KLA1 122257Z 10006KT 18/M06 A3019 RMK A01 T01821060  RH  019%=      5-min Rain = 0
KLA1 122258Z 08009KT 18/M06 A3019 RMK A01 T01831058  RH  019%=      5-min Rain = 0
KLA1 122259Z 08010KT 18/M06 A3019 RMK A01 T01831059  RH  019%=      5-min Rain = 0
KLA1 122300Z 08008KT 18/M06 A3019 RMK A01 T01811060  RH  019%=      5-min Rain = 0
KLA1 122301Z 10007KT 18/M06 A3019 RMK A01 T01811060  RH  019%=      5-min Rain = 0
KLA1 122302Z 08004KT 18/M06 A3019 RMK A01 T01791060  RH  019%=      5-min Rain = 0
KLA1 122303Z 09004KT 18/M06 A3019 RMK A01 T01781060  RH  019%=      5-min Rain = 0
KLA1 122304Z 06004KT 18/M06 A3019 RMK A01 T01761061  RH  019%=      5-min Rain = 0
KLA1 122305Z 06003KT 18/M06 A3019 RMK A01 T01771059  RH  019%=      5-min Rain = 0
KLA1 122306Z 09005KT 18/M06 A3019 RMK A01 T01771059  RH  019%=      5-min Rain = 0
KLA1 122307Z 08004KT 18/M06 A3019 RMK A01 T01791058  RH  019%=      5-min Rain = 0
KLA1 122308Z 08003KT 18/M06 A3019 RMK A01 T01791059  RH  019%=      5-min Rain = 0
KLA1 122309Z 10004KT 18/M06 A3019 RMK A01 T01781060  RH  019%=      5-min Rain = 0
KLA1 122310Z 11008KT 18/M06 A3019 RMK A01 T01781059  RH  019%=      5-min Rain = 0
KLA1 122311Z 10008KT 18/M06 A3019 RMK A01 T01791059  RH  019%=      5-min Rain = 0
KLA1 122312Z 09007KT 18/M06 A3019 RMK A01 T01791058  RH  019%=      5-min Rain = 0
KLA1 122313Z 11009KT 18/M06 A3019 RMK A01 T01811058  RH  019%=      5-min Rain = 0
KLA1 122314Z 10007KT 18/M06 A3018 RMK A01 T01801059  RH  019%=      5-min Rain = 0
KLA1 122315Z 08005KT 18/M06 A3019 RMK A01 T01791059  RH  019%=      5-min Rain = 0
KLA1 122316Z 07004KT 18/M06 A3019 RMK A01 T01781059  RH  019%=      5-min Rain = 0
KLA1 122317Z 07006KT 18/M06 A3019 RMK A01 T01771059  RH  019%=      5-min Rain = 0
KLA1 122318Z 07004KT 18/M06 A3019 RMK A01 T01771060  RH  019%=      5-min Rain = 0
KLA1 122319Z 06004G9KT 18/M06 A3019 RMK A01 T01771059  RH  019%=      5-min Rain = 0
KLA1 122320Z 07007KT 18/M06 A3019 RMK A01 T01771059  RH  019%=      5-min Rain = 0
KLA1 122321Z 08008KT 18/M06 A3019 RMK A01 T01771059  RH  019%=      5-min Rain = 0
KLA1 122322Z 09006KT 18/M06 A3019 RMK A01 T01781060  RH  019%=      5-min Rain = 0
KLA1 122323Z 08005KT 18/M06 A3019 RMK A01 T01781059  RH  019%=      5-min Rain = 0
KLA1 122324Z 07005KT 18/M06 A3019 RMK A01 T01781060  RH  019%=      5-min Rain = 0
KLA1 122325Z 08006KT 18/M06 A3019 RMK A01 T01781060  RH  019%=      5-min Rain = 0
KLA1 122326Z 09007KT 18/M06 A3019 RMK A01 T01791060  RH  019%=      5-min Rain = 0
KLA1 122327Z 10008KT 18/M06 A3019 RMK A01 T01781061  RH  019%=      5-min Rain = 0
KLA1 122328Z 09008KT 18/M06 A3019 RMK A01 T01771062  RH  019%=      5-min Rain = 0
KLA1 122329Z 08004KT 18/M06 A3018 RMK A01 T01761061  RH  019%=      5-min Rain = 0
KLA1 122330Z 08007KT 18/M06 A3018 RMK A01 T01761061  RH  019%=      5-min Rain = 0
KLA1 122331Z 08005KT 18/M06 A3018 RMK A01 T01761061  RH  019%=      5-min Rain = 0
KLA1 122332Z 07006KT 18/M06 A3018 RMK A01 T01761060  RH  019%=      5-min Rain = 0
KLA1 122333Z 06004KT 18/M06 A3018 RMK A01 T01761062  RH  019%=      5-min Rain = 0
KLA1 122334Z 08004KT 18/M06 A3018 RMK A01 T01761061  RH  019%=      5-min Rain = 0
KLA1 122335Z 09006KT 18/M06 A3018 RMK A01 T01761060  RH  019%=      5-min Rain = 0
KLA1 122336Z 08009KT 18/M06 A3018 RMK A01 T01761061  RH  019%=      5-min Rain = 0
KLA1 122337Z 09006KT 18/M06 A3018 RMK A01 T01761061  RH  019%=      5-min Rain = 0
KLA1 122338Z 08005KT 18/M06 A3018 RMK A01 T01771061  RH  019%=      5-min Rain = 0
KLA1 122339Z 08003KT 18/M06 A3018 RMK A01 T01771062  RH  019%=      5-min Rain = 0
KLA1 122340Z 10003KT 18/M06 A3018 RMK A01 T01771062  RH  019%=      5-min Rain = 0
KLA1 122341Z 08003KT 18/M06 A3018 RMK A01 T01761062  RH  019%=      5-min Rain = 0
KLA1 122342Z 09003KT 18/M06 A3018 RMK A01 T01761060  RH  019%=      5-min Rain = 0
KLA1 122343Z 08004KT 18/M06 A3018 RMK A01 T01771061  RH  019%=      5-min Rain = 0
KLA1 122344Z 07006KT 18/M06 A3018 RMK A01 T01771061  RH  019%=      5-min Rain = 0
KLA1 122345Z 09007KT 18/M06 A3018 RMK A01 T01771061  RH  019%=      5-min Rain = 0
KLA1 122346Z 10007KT 18/M06 A3018 RMK A01 T01771062  RH  019%=      5-min Rain = 0
KLA1 122347Z 09005KT 18/M06 A3018 RMK A01 T01771062  RH  019%=      5-min Rain = 0
KLA1 122348Z 07005KT 18/M06 A3018 RMK A01 T01771062  RH  019%=      5-min Rain = 0
KLA1 122349Z 08004KT 18/M06 A3018 RMK A01 T01771062  RH  019%=      5-min Rain = 0
KLA1 122350Z 06004KT 18/M06 A3018 RMK A01 T01761062  RH  019%=      5-min Rain = 0
KLA1 122351Z 07003KT 18/M06 A3018 RMK A01 T01761062  RH  019%=      5-min Rain = 0
KLA1 122352Z 07007KT 18/M06 A3018 RMK A01 T01761062  RH  019%=      5-min Rain = 0
KLA1 122353Z 07008KT 18/M06 A3018 RMK A01 T01761063  RH  019%=      5-min Rain = 0
KLA1 122354Z 06009KT 18/M06 A3018 RMK A01 T01751064  RH  019%=      5-min Rain = 0
KLA1 122355Z 06009KT 17/M07 A3018 RMK A01 T01741065  RH  019%=      5-min Rain = 0
KLA1 122356Z 06008KT 17/M07 A3018 RMK A01 T01731065  RH  019%=      5-min Rain = 0
KLA1 122357Z 07007KT 17/M07 A3018 RMK A01 T01731065  RH  019%=      5-min Rain = 0
KLA1 122358Z 07007KT 17/M07 A3018 RMK A01 T01731065  RH  019%=      5-min Rain = 0
KLA1 122359Z 06005KT 17/M07 A3019 RMK A01 T01731065  RH  019%=      5-min Rain = 0
KLA1 130000Z 08006KT 17/M07 A3019 RMK A01 T01731065  RH  019%=      5-min Rain = 0
KLA1 130001Z 08004KT 17/M07 A3019 RMK A01 T01721065  RH  019%=      5-min Rain = 0
KLA1 130002Z 07003KT 17/M07 A3019 RMK A01 T01721065  RH  019%=      5-min Rain = 0
KLA1 130003Z 07003KT 17/M07 A3019 RMK A01 T01721065  RH  019%=      5-min Rain = 0
KLA1 130004Z 07005KT 17/M06 A3018 RMK A01 T01721064  RH  019%=      5-min Rain = 0
KLA1 130005Z 09008KT 17/M06 A3018 RMK A01 T01721064  RH  019%=      5-min Rain = 0
KLA1 130006Z 07005KT 17/M06 A3018 RMK A01 T01731064  RH  019%=      5-min Rain = 0
KLA1 130007Z 08006KT 17/M06 A3018 RMK A01 T01731064  RH  019%=      5-min Rain = 0
KLA1 130008Z 10008KT 17/M06 A3018 RMK A01 T01741064  RH  019%=      5-min Rain = 0
KLA1 130009Z 09007KT 17/M07 A3019 RMK A01 T01741065  RH  019%=      5-min Rain = 0
KLA1 130010Z 10006KT 17/M07 A3018 RMK A01 T01741065  RH  019%=      5-min Rain = 0
KLA1 130011Z 10005KT 17/M07 A3018 RMK A01 T01741065  RH  019%=      5-min Rain = 0
KLA1 130012Z 09005KT 17/M07 A3018 RMK A01 T01741065  RH  019%=      5-min Rain = 0
KLA1 130013Z 07005KT 17/M06 A3018 RMK A01 T01741063  RH  019%=      5-min Rain = 0
KLA1 130014Z 08006KT 18/M06 A3018 RMK A01 T01751063  RH  019%=      5-min Rain = 0
KLA1 130015Z 09006KT 17/M06 A3018 RMK A01 T01741063  RH  019%=      5-min Rain = 0
KLA1 130016Z 09007KT 17/M06 A3018 RMK A01 T01741064  RH  019%=      5-min Rain = 0
KLA1 130017Z 07005KT 17/M06 A3018 RMK A01 T01741064  RH  019%=      5-min Rain = 0
KLA1 130018Z 09005KT 17/M06 A3019 RMK A01 T01731064  RH  019%=      5-min Rain = 0
KLA1 130019Z 10006KT 17/M06 A3019 RMK A01 T01731063  RH  019%=      5-min Rain = 0
KLA1 130020Z 09007KT 17/M06 A3018 RMK A01 T01731063  RH  019%=      5-min Rain = 0
KLA1 130021Z 10005KT 17/M06 A3018 RMK A01 T01731062  RH  019%=      5-min Rain = 0
KLA1 130022Z 08004KT 17/M06 A3019 RMK A01 T01731061  RH  020%=      5-min Rain = 0
KLA1 130023Z 07006KT 17/M06 A3019 RMK A01 T01731062  RH  020%=      5-min Rain = 0
KLA1 130024Z 09006KT 17/M06 A3019 RMK A01 T01731062  RH  019%=      5-min Rain = 0
KLA1 130025Z 09006KT 17/M06 A3019 RMK A01 T01731062  RH  020%=      5-min Rain = 0
KLA1 130026Z 10006KT 17/M06 A3019 RMK A01 T01721062  RH  020%=      5-min Rain = 0
KLA1 130027Z 09007KT 17/M06 A3019 RMK A01 T01711062  RH  020%=      5-min Rain = 0
KLA1 130028Z 09005KT 17/M06 A3019 RMK A01 T01711062  RH  020%=      5-min Rain = 0
KLA1 130029Z 09002KT 17/M06 A3019 RMK A01 T01711062  RH  020%=      5-min Rain = 0
KLA1 130030Z 06003KT 17/M06 A3019 RMK A01 T01701062  RH  020%=      5-min Rain = 0
KLA1 130031Z 06005KT 17/M06 A3019 RMK A01 T01701061  RH  020%=      5-min Rain = 0
KLA1 130032Z 07004KT 17/M06 A3019 RMK A01 T01701060  RH  020%=      5-min Rain = 0
KLA1 130033Z 07004KT 17/M06 A3019 RMK A01 T01701061  RH  020%=      5-min Rain = 0
KLA1 130034Z 06005KT 17/M06 A3018 RMK A01 T01691061  RH  020%=      5-min Rain = 0
KLA1 130035Z 08005KT 17/M06 A3019 RMK A01 T01691060  RH  020%=      5-min Rain = 0
KLA1 130036Z 09007KT 17/M06 A3019 RMK A01 T01691060  RH  020%=      5-min Rain = 0
KLA1 130037Z 09006KT 17/M06 A3018 RMK A01 T01691060  RH  020%=      5-min Rain = 0
KLA1 130038Z 09006KT 17/M06 A3018 RMK A01 T01691060  RH  020%=      5-min Rain = 0
KLA1 130039Z 09006KT 17/M06 A3018 RMK A01 T01681060  RH  020%=      5-min Rain = 0
KLA1 130040Z 09007KT 17/M06 A3018 RMK A01 T01681060  RH  020%=      5-min Rain = 0
KLA1 130041Z 09005KT 17/M06 A3018 RMK A01 T01681060  RH  020%=      5-min Rain = 0
KLA1 130042Z 09006KT 17/M06 A3018 RMK A01 T01681060  RH  020%=      5-min Rain = 0
KLA1 130043Z 09006KT 17/M06 A3018 RMK A01 T01671061  RH  020%=      5-min Rain = 0
KLA1 130044Z 09006KT 17/M06 A3018 RMK A01 T01671061  RH  020%=      5-min Rain = 0
KLA1 130045Z 09006KT 17/M06 A3018 RMK A01 T01671061  RH  020%=      5-min Rain = 0
KLA1 130046Z 09006KT 17/M06 A3018 RMK A01 T01661061  RH  021%=      5-min Rain = 0
KLA1 130047Z 10006KT 17/M06 A3018 RMK A01 T01661061  RH  021%=      5-min Rain = 0
KLA1 130048Z 09004KT 17/M06 A3018 RMK A01 T01661061  RH  021%=      5-min Rain = 0
KLA1 130049Z 09004KT 17/M06 A3019 RMK A01 T01651061  RH  021%=      5-min Rain = 0
KLA1 130050Z 09005KT 17/M06 A3019 RMK A01 T01651061  RH  021%=      5-min Rain = 0
KLA1 130051Z 07005KT 16/M06 A3019 RMK A01 T01641061  RH  021%=      5-min Rain = 0
KLA1 130052Z 08006KT 16/M06 A3019 RMK A01 T01641061  RH  021%=      5-min Rain = 0
KLA1 130053Z 08005KT 16/M06 A3019 RMK A01 T01641062  RH  021%=      5-min Rain = 0
KLA1 130054Z 08005KT 16/M06 A3019 RMK A01 T01641062  RH  021%=      5-min Rain = 0
KLA1 130055Z 09003KT 16/M06 A3019 RMK A01 T01641062  RH  021%=      5-min Rain = 0
KLA1 130056Z 08004KT 16/M06 A3019 RMK A01 T01631062  RH  021%=      5-min Rain = 0
KLA1 130057Z 08004KT 16/M06 A3019 RMK A01 T01631062  RH  021%=      5-min Rain = 0
KLA1 130058Z 08006KT 16/M06 A3019 RMK A01 T01621062  RH  021%=      5-min Rain = 0
KLA1 130059Z 08005KT 16/M06 A3019 RMK A01 T01621063  RH  021%=      5-min Rain = 0
KLA1 130100Z 09005KT 16/M06 A3019 RMK A01 T01631062  RH  021%=      5-min Rain = 0
KLA1 130101Z 08004KT 16/M06 A3019 RMK A01 T01631062  RH  021%=      5-min Rain = 0
KLA1 130102Z 07004KT 16/M06 A3019 RMK A01 T01621062  RH  021%=      5-min Rain = 0
KLA1 130103Z 07004KT 16/M06 A3019 RMK A01 T01621062  RH  021%=      5-min Rain = 0
KLA1 130104Z 07004KT 16/M06 A3019 RMK A01 T01611062  RH  021%=      5-min Rain = 0
KLA1 130105Z 07005KT 16/M06 A3019 RMK A01 T01611062  RH  021%=      5-min Rain = 0
KLA1 130106Z 07004KT 16/M06 A302 RMK A01 T01611062  RH  021%=      5-min Rain = 0
KLA1 130107Z 07005KT 16/M06 A302 RMK A01 T01611062  RH  021%=      5-min Rain = 0
KLA1 130108Z 07005KT 16/M06 A302 RMK A01 T01611062  RH  021%=      5-min Rain = 0
KLA1 130109Z 07005KT 16/M06 A302 RMK A01 T01601062  RH  021%=      5-min Rain = 0
KLA1 130110Z 08005KT 16/M06 A302 RMK A01 T01601062  RH  021%=      5-min Rain = 0
KLA1 130111Z 06004KT 16/M06 A302 RMK A01 T01601062  RH  021%=      5-min Rain = 0
KLA1 130112Z 07005KT 16/M06 A302 RMK A01 T01601062  RH  021%=      5-min Rain = 0
KLA1 130113Z 08006KT 16/M06 A302 RMK A01 T01601062  RH  021%=      5-min Rain = 0
KLA1 130114Z 08005KT 16/M06 A302 RMK A01 T01591062  RH  021%=      5-min Rain = 0
KLA1 130115Z 08005KT 16/M06 A3019 RMK A01 T01601062  RH  021%=      5-min Rain = 0
KLA1 130116Z 06005KT 16/M06 A3019 RMK A01 T01591062  RH  021%=      5-min Rain = 0
KLA1 130117Z 06005KT 16/M06 A3019 RMK A01 T01581062  RH  021%=      5-min Rain = 0
KLA1 130118Z 05005KT 16/M06 A3019 RMK A01 T01581062  RH  022%=      5-min Rain = 0
KLA1 130119Z 06006KT 16/M06 A3019 RMK A01 T01581061  RH  022%=      5-min Rain = 0
KLA1 130120Z 06006KT 16/M06 A302 RMK A01 T01581062  RH  022%=      5-min Rain = 0
KLA1 130121Z 07006KT 16/M06 A302 RMK A01 T01581061  RH  022%=      5-min Rain = 0
KLA1 130122Z 07008KT 16/M06 A302 RMK A01 T01591061  RH  021%=      5-min Rain = 0
KLA1 130123Z 07006KT 16/M06 A302 RMK A01 T01601061  RH  021%=      5-min Rain = 0
KLA1 130124Z 07005KT 16/M06 A302 RMK A01 T01601061  RH  021%=      5-min Rain = 0
KLA1 130125Z 08004KT 16/M06 A302 RMK A01 T01601061  RH  021%=      5-min Rain = 0
KLA1 130126Z 05004KT 16/M06 A302 RMK A01 T01601061  RH  021%=      5-min Rain = 0
KLA1 130127Z 05005KT 16/M06 A302 RMK A01 T01591061  RH  022%=      5-min Rain = 0
KLA1 130128Z 07006KT 16/M06 A302 RMK A01 T01581061  RH  022%=      5-min Rain = 0
KLA1 130129Z 06004KT 16/M06 A302 RMK A01 T01591060  RH  022%=      5-min Rain = 0
KLA1 130130Z 07005KT 16/M06 A302 RMK A01 T01591060  RH  022%=      5-min Rain = 0
KLA1 130131Z 07006KT 16/M06 A302 RMK A01 T01581060  RH  022%=      5-min Rain = 0
KLA1 130132Z 07005KT 16/M06 A302 RMK A01 T01581060  RH  022%=      5-min Rain = 0
KLA1 130133Z 05005KT 16/M06 A302 RMK A01 T01581060  RH  022%=      5-min Rain = 0
KLA1 130134Z 06005KT 16/M06 A302 RMK A01 T01581060  RH  022%=      5-min Rain = 0
KLA1 130135Z 06005KT 16/M06 A302 RMK A01 T01571060  RH  022%=      5-min Rain = 0
KLA1 130136Z 06007KT 16/M06 A302 RMK A01 T01561060  RH  022%=      5-min Rain = 0
KLA1 130137Z 06005KT 16/M06 A302 RMK A01 T01561059  RH  022%=      5-min Rain = 0
KLA1 130138Z 07006KT 16/M06 A302 RMK A01 T01561059  RH  022%=      5-min Rain = 0
KLA1 130139Z 06006KT 16/M06 A302 RMK A01 T01571059  RH  022%=      5-min Rain = 0
KLA1 130140Z 07005KT 16/M06 A302 RMK A01 T01571059  RH  022%=      5-min Rain = 0
KLA1 130141Z 06007KT 16/M06 A302 RMK A01 T01571059  RH  022%=      5-min Rain = 0
KLA1 130142Z 07006KT 16/M06 A302 RMK A01 T01571060  RH  022%=      5-min Rain = 0
KLA1 130143Z 07007KT 16/M06 A302 RMK A01 T01561060  RH  022%=      5-min Rain = 0
KLA1 130144Z 07008KT 16/M06 A302 RMK A01 T01561060  RH  022%=      5-min Rain = 0
KLA1 130145Z 06006KT 16/M06 A302 RMK A01 T01561060  RH  022%=      5-min Rain = 0
KLA1 130146Z 06008KT 16/M06 A302 RMK A01 T01561060  RH  022%=      5-min Rain = 0
KLA1 130147Z 06008KT 16/M06 A302 RMK A01 T01561060  RH  022%=      5-min Rain = 0
KLA1 130148Z 06007KT 16/M06 A302 RMK A01 T01561060  RH  022%=      5-min Rain = 0
KLA1 130149Z 05006KT 16/M06 A302 RMK A01 T01561061  RH  022%=      5-min Rain = 0
KLA1 130150Z 06008KT 16/M06 A302 RMK A01 T01561061  RH  022%=      5-min Rain = 0
KLA1 130151Z 08008KT 16/M06 A302 RMK A01 T01551061  RH  022%=      5-min Rain = 0
KLA1 130152Z 07005KT 16/M06 A302 RMK A01 T01561061  RH  022%=      5-min Rain = 0
KLA1 130153Z 06006KT 16/M06 A302 RMK A01 T01551061  RH  022%=      5-min Rain = 0
KLA1 130154Z 07007KT 16/M06 A302 RMK A01 T01551061  RH  022%=      5-min Rain = 0
KLA1 130155Z 07006KT 16/M06 A302 RMK A01 T01551061  RH  022%=      5-min Rain = 0
KLA1 130156Z 07006KT 15/M06 A302 RMK A01 T01541061  RH  022%=      5-min Rain = 0
KLA1 130157Z 06007KT 15/M06 A302 RMK A01 T01541061  RH  022%=      5-min Rain = 0
KLA1 130158Z 07007KT 15/M06 A302 RMK A01 T01541061  RH  022%=      5-min Rain = 0
KLA1 130159Z 07006KT 15/M06 A302 RMK A01 T01541061  RH  022%=      5-min Rain = 0
KLA1 130200Z 08006KT 15/M06 A302 RMK A01 T01541061  RH  022%=      5-min Rain = 0
KLA1 130201Z 06007KT 15/M06 A302 RMK A01 T01541061  RH  022%=      5-min Rain = 0
KLA1 130202Z 06006KT 15/M06 A302 RMK A01 T01541061  RH  022%=      5-min Rain = 0
KLA1 130203Z 07008KT 15/M06 A302 RMK A01 T01541061  RH  022%=      5-min Rain = 0
KLA1 130204Z 08007KT 15/M06 A302 RMK A01 T01531062  RH  022%=      5-min Rain = 0
KLA1 130205Z 08006KT 15/M06 A302 RMK A01 T01541062  RH  022%=      5-min Rain = 0
KLA1 130206Z 07008KT 15/M06 A302 RMK A01 T01541062  RH  022%=      5-min Rain = 0
KLA1 130207Z 07007G12KT 15/M06 A302 RMK A01 T01541062  RH  022%=      5-min Rain = 0
KLA1 130208Z 07008G14KT 15/M06 A302 RMK A01 T01541062  RH  022%=      5-min Rain = 0
KLA1 130209Z 08007KT 15/M06 A302 RMK A01 T01541062  RH  022%=      5-min Rain = 0
KLA1 130210Z 07008KT 15/M06 A302 RMK A01 T01541062  RH  022%=      5-min Rain = 0
KLA1 130211Z 07007KT 15/M06 A302 RMK A01 T01541062  RH  022%=      5-min Rain = 0
KLA1 130212Z 08007KT 16/M06 A302 RMK A01 T01551062  RH  022%=      5-min Rain = 0
KLA1 130213Z 07007KT 16/M06 A302 RMK A01 T01551062  RH  022%=      5-min Rain = 0
KLA1 130214Z 06006KT 15/M06 A302 RMK A01 T01541063  RH  022%=      5-min Rain = 0
KLA1 130215Z 07007KT 15/M06 A302 RMK A01 T01541063  RH  022%=      5-min Rain = 0
KLA1 130216Z 08007KT 15/M06 A302 RMK A01 T01541063  RH  022%=      5-min Rain = 0
KLA1 130217Z 08006KT 15/M06 A302 RMK A01 T01531063  RH  022%=      5-min Rain = 0
KLA1 130218Z 08008KT 15/M06 A302 RMK A01 T01531063  RH  022%=      5-min Rain = 0
KLA1 130219Z 07007KT 15/M06 A302 RMK A01 T01531063  RH  022%=      5-min Rain = 0
KLA1 130220Z 07007KT 15/M06 A302 RMK A01 T01531063  RH  022%=      5-min Rain = 0
KLA1 130221Z 07007KT 15/M06 A3021 RMK A01 T01531063  RH  022%=      5-min Rain = 0
KLA1 130222Z 07007KT 15/M06 A3021 RMK A01 T01531063  RH  022%=      5-min Rain = 0
KLA1 130223Z 07006KT 15/M06 A3021 RMK A01 T01531063  RH  022%=      5-min Rain = 0
KLA1 130224Z 07006KT 15/M06 A3021 RMK A01 T01521063  RH  022%=      5-min Rain = 0
KLA1 130225Z 07006KT 15/M06 A3021 RMK A01 T01521063  RH  022%=      5-min Rain = 0
KLA1 130226Z 08007KT 15/M06 A3021 RMK A01 T01521063  RH  022%=      5-min Rain = 0
KLA1 130227Z 08005KT 15/M06 A3021 RMK A01 T01521063  RH  022%=      5-min Rain = 0
KLA1 130228Z 08008KT 15/M06 A3021 RMK A01 T01521063  RH  022%=      5-min Rain = 0
KLA1 130229Z 07006KT 15/M06 A3021 RMK A01 T01521063  RH  022%=      5-min Rain = 0
KLA1 130230Z 07007KT 15/M06 A3021 RMK A01 T01511063  RH  022%=      5-min Rain = 0
KLA1 130231Z 07007KT 15/M06 A3021 RMK A01 T01511062  RH  022%=      5-min Rain = 0
KLA1 130232Z 07008KT 15/M06 A3021 RMK A01 T01511063  RH  022%=      5-min Rain = 0
KLA1 130233Z 08008KT 15/M06 A3021 RMK A01 T01511063  RH  022%=      5-min Rain = 0
KLA1 130234Z 06007KT 15/M06 A3021 RMK A01 T01511063  RH  022%=      5-min Rain = 0
KLA1 130235Z 07007KT 15/M06 A3021 RMK A01 T01511063  RH  022%=      5-min Rain = 0
KLA1 130236Z 08008KT 15/M06 A3021 RMK A01 T01511063  RH  022%=      5-min Rain = 0
KLA1 130237Z 06008KT 15/M06 A3021 RMK A01 T01511063  RH  022%=      5-min Rain = 0
KLA1 130238Z 08009KT 15/M06 A3021 RMK A01 T01511063  RH  022%=      5-min Rain = 0
KLA1 130239Z 07009KT 15/M06 A3021 RMK A01 T01511063  RH  022%=      5-min Rain = 0
KLA1 130240Z 07009KT 15/M06 A3021 RMK A01 T01511063  RH  022%=      5-min Rain = 0
KLA1 130241Z 07007KT 15/M06 A3021 RMK A01 T01511063  RH  022%=      5-min Rain = 0
KLA1 130242Z 07009KT 15/M06 A3021 RMK A01 T01511064  RH  022%=      5-min Rain = 0
KLA1 130243Z 08008KT 15/M06 A3021 RMK A01 T01511064  RH  022%=      5-min Rain = 0
KLA1 130244Z 07006KT 15/M06 A3021 RMK A01 T01511063  RH  022%=      5-min Rain = 0
KLA1 130245Z 07009KT 15/M06 A3021 RMK A01 T01511063  RH  022%=      5-min Rain = 0
KLA1 130246Z 07009KT 15/M06 A3021 RMK A01 T01501064  RH  022%=      5-min Rain = 0
KLA1 130247Z 06009KT 15/M06 A3021 RMK A01 T01501064  RH  022%=      5-min Rain = 0
KLA1 130248Z 07009KT 15/M06 A3021 RMK A01 T01501064  RH  022%=      5-min Rain = 0
KLA1 130249Z 07008KT 15/M06 A3021 RMK A01 T01501064  RH  022%=      5-min Rain = 0
KLA1 130250Z 07007KT 15/M06 A3021 RMK A01 T01501063  RH  022%=      5-min Rain = 0
KLA1 130251Z 07007KT 15/M06 A3021 RMK A01 T01501064  RH  022%=      5-min Rain = 0
KLA1 130252Z 07008KT 15/M06 A3021 RMK A01 T01491064  RH  022%=      5-min Rain = 0
KLA1 130253Z 07007KT 15/M06 A3021 RMK A01 T01501064  RH  022%=      5-min Rain = 0
KLA1 130254Z 07009KT 15/M06 A3021 RMK A01 T01491064  RH  022%=      5-min Rain = 0
KLA1 130255Z 07010KT 15/M06 A3021 RMK A01 T01491064  RH  022%=      5-min Rain = 0
KLA1 130256Z 07010KT 15/M06 A3021 RMK A01 T01491064  RH  022%=      5-min Rain = 0
KLA1 130257Z 08007KT 15/M06 A3021 RMK A01 T01491064  RH  022%=      5-min Rain = 0
KLA1 130258Z 08008KT 15/M06 A3021 RMK A01 T01491064  RH  022%=      5-min Rain = 0
KLA1 130259Z 08011KT 15/M06 A3021 RMK A01 T01491064  RH  022%=      5-min Rain = 0
KLA1 130300Z 08006KT 15/M06 A3021 RMK A01 T01491064  RH  022%=      5-min Rain = 0
KLA1 130301Z 08007G14KT 15/M06 A3021 RMK A01 T01491064  RH  022%=      5-min Rain = 0
KLA1 130302Z 07010KT 15/M06 A3021 RMK A01 T01491064  RH  022%=      5-min Rain = 0
KLA1 130303Z 08009KT 15/M06 A3021 RMK A01 T01491064  RH  022%=      5-min Rain = 0
KLA1 130304Z 06006KT 15/M06 A3021 RMK A01 T01491064  RH  022%=      5-min Rain = 0
KLA1 130305Z 07007KT 15/M06 A3021 RMK A01 T01481064  RH  023%=      5-min Rain = 0
KLA1 130306Z 07008KT 15/M06 A3021 RMK A01 T01481064  RH  023%=      5-min Rain = 0
KLA1 130307Z 07007KT 15/M06 A3021 RMK A01 T01481064  RH  023%=      5-min Rain = 0
KLA1 130308Z 07007KT 15/M06 A3021 RMK A01 T01471064  RH  023%=      5-min Rain = 0
KLA1 130309Z 07009KT 15/M06 A3021 RMK A01 T01471064  RH  023%=      5-min Rain = 0
KLA1 130310Z 08009KT 15/M06 A3021 RMK A01 T01471064  RH  023%=      5-min Rain = 0
KLA1 130311Z 09009KT 15/M06 A3021 RMK A01 T01471064  RH  023%=      5-min Rain = 0
KLA1 130312Z 07006KT 15/M06 A3021 RMK A01 T01471064  RH  023%=      5-min Rain = 0
KLA1 130313Z 06008KT 15/M06 A3021 RMK A01 T01461064  RH  023%=      5-min Rain = 0
KLA1 130314Z 08010KT 15/M06 A3021 RMK A01 T01461064  RH  023%=      5-min Rain = 0
KLA1 130315Z 07008KT 15/M06 A3021 RMK A01 T01461064  RH  023%=      5-min Rain = 0
KLA1 130316Z 07007KT 15/M06 A3021 RMK A01 T01461064  RH  023%=      5-min Rain = 0
KLA1 130317Z 08009KT 15/M06 A3021 RMK A01 T01461064  RH  023%=      5-min Rain = 0
KLA1 130318Z 07006KT 15/M06 A3021 RMK A01 T01461064  RH  023%=      5-min Rain = 0
KLA1 130319Z 08007KT 15/M06 A3021 RMK A01 T01461064  RH  023%=      5-min Rain = 0
KLA1 130320Z 07007KT 15/M06 A3021 RMK A01 T01451064  RH  023%=      5-min Rain = 0
KLA1 130321Z 07008KT 15/M06 A3021 RMK A01 T01461064  RH  023%=      5-min Rain = 0
KLA1 130322Z 07007KT 15/M06 A3021 RMK A01 T01451064  RH  023%=      5-min Rain = 0
KLA1 130323Z 07008KT 15/M06 A3021 RMK A01 T01451064  RH  023%=      5-min Rain = 0
KLA1 130324Z 07008KT 15/M06 A3021 RMK A01 T01451064  RH  023%=      5-min Rain = 0
KLA1 130325Z 07011KT 15/M06 A3021 RMK A01 T01451064  RH  023%=      5-min Rain = 0
KLA1 130326Z 07008KT 15/M06 A3021 RMK A01 T01451064  RH  023%=      5-min Rain = 0
KLA1 130327Z 07011KT 14/M06 A3021 RMK A01 T01441064  RH  023%=      5-min Rain = 0
KLA1 130328Z 08008KT 15/M06 A3021 RMK A01 T01451064  RH  023%=      5-min Rain = 0
KLA1 130329Z 07010KT 15/M06 A3021 RMK A01 T01451064  RH  023%=      5-min Rain = 0
KLA1 130330Z 06009KT 15/M06 A3021 RMK A01 T01451064  RH  023%=      5-min Rain = 0
KLA1 130331Z 07009KT 15/M06 A3021 RMK A01 T01451064  RH  023%=      5-min Rain = 0
KLA1 130332Z 07008KT 15/M06 A3021 RMK A01 T01451064  RH  023%=      5-min Rain = 0
KLA1 130333Z 07008KT 15/M06 A3021 RMK A01 T01451063  RH  023%=      5-min Rain = 0
KLA1 130334Z 08008KT 15/M06 A3021 RMK A01 T01451063  RH  023%=      5-min Rain = 0
KLA1 130335Z 08008KT 14/M06 A3021 RMK A01 T01441063  RH  023%=      5-min Rain = 0
KLA1 130336Z 07007KT 14/M06 A3021 RMK A01 T01441064  RH  023%=      5-min Rain = 0
KLA1 130337Z 08008KT 14/M06 A3022 RMK A01 T01441064  RH  023%=      5-min Rain = 0
KLA1 130338Z 07007KT 14/M06 A3022 RMK A01 T01431063  RH  023%=      5-min Rain = 0
KLA1 130339Z 06007KT 14/M06 A3021 RMK A01 T01441063  RH  023%=      5-min Rain = 0
KLA1 130340Z 08009KT 14/M06 A3022 RMK A01 T01431063  RH  023%=      5-min Rain = 0
KLA1 130341Z 09008KT 14/M06 A3021 RMK A01 T01431063  RH  023%=      5-min Rain = 0
KLA1 130342Z 09008KT 14/M06 A3021 RMK A01 T01431063  RH  024%=      5-min Rain = 0
KLA1 130343Z 09008KT 14/M06 A3021 RMK A01 T01431063  RH  023%=      5-min Rain = 0
KLA1 130344Z 07008KT 14/M06 A3021 RMK A01 T01431062  RH  024%=      5-min Rain = 0
KLA1 130345Z 08008KT 14/M06 A3021 RMK A01 T01431062  RH  024%=      5-min Rain = 0
KLA1 130346Z 07009KT 14/M06 A3021 RMK A01 T01421062  RH  024%=      5-min Rain = 0
KLA1 130347Z 07008KT 14/M06 A3022 RMK A01 T01421062  RH  024%=      5-min Rain = 0
KLA1 130348Z 07007KT 14/M06 A3022 RMK A01 T01421062  RH  024%=      5-min Rain = 0
KLA1 130349Z 07007KT 14/M06 A3022 RMK A01 T01411062  RH  024%=      5-min Rain = 0
KLA1 130350Z 07008KT 14/M06 A3022 RMK A01 T01411062  RH  024%=      5-min Rain = 0
KLA1 130351Z 07007KT 14/M06 A3022 RMK A01 T01411061  RH  024%=      5-min Rain = 0
KLA1 130352Z 09010KT 14/M06 A3022 RMK A01 T01411061  RH  024%=      5-min Rain = 0
KLA1 130353Z 08009KT 14/M06 A3022 RMK A01 T01411061  RH  024%=      5-min Rain = 0
KLA1 130354Z 06009KT 14/M06 A3022 RMK A01 T01411061  RH  024%=      5-min Rain = 0
KLA1 130355Z 06008KT 14/M06 A3022 RMK A01 T01411061  RH  024%=      5-min Rain = 0
KLA1 130356Z 07007KT 14/M06 A3022 RMK A01 T01411061  RH  024%=      5-min Rain = 0
KLA1 130357Z 07008KT 14/M06 A3022 RMK A01 T01411060  RH  024%=      5-min Rain = 0
KLA1 130358Z 07008KT 14/M06 A3022 RMK A01 T01411060  RH  024%=      5-min Rain = 0
KLA1 130359Z 06007KT 14/M06 A3022 RMK A01 T01411060  RH  024%=      5-min Rain = 0
KLA1 130400Z 07009KT 14/M06 A3022 RMK A01 T01411060  RH  024%=      5-min Rain = 0
KLA1 130401Z 06007KT 14/M06 A3022 RMK A01 T01401061  RH  024%=      5-min Rain = 0
KLA1 130402Z 08007KT 14/M06 A3023 RMK A01 T01401061  RH  024%=      5-min Rain = 0
KLA1 130403Z 08006KT 14/M06 A3022 RMK A01 T01401061  RH  024%=      5-min Rain = 0
KLA1 130404Z 08007KT 14/M06 A3022 RMK A01 T01391061  RH  024%=      5-min Rain = 0
KLA1 130405Z 08008KT 14/M06 A3022 RMK A01 T01401060  RH  025%=      5-min Rain = 0
KLA1 130406Z 08006KT 14/M06 A3022 RMK A01 T01391060  RH  025%=      5-min Rain = 0
KLA1 130407Z 08006KT 14/M06 A3022 RMK A01 T01391060  RH  025%=      5-min Rain = 0
KLA1 130408Z 08005KT 14/M06 A3022 RMK A01 T01391060  RH  025%=      5-min Rain = 0
KLA1 130409Z 07007KT 14/M06 A3022 RMK A01 T01391060  RH  025%=      5-min Rain = 0
KLA1 130410Z 07008KT 14/M06 A3022 RMK A01 T01391060  RH  025%=      5-min Rain = 0
KLA1 130411Z 07007KT 14/M06 A3022 RMK A01 T01401059  RH  025%=      5-min Rain = 0
KLA1 130412Z 07006KT 14/M06 A3022 RMK A01 T01391059  RH  025%=      5-min Rain = 0
KLA1 130413Z 07007KT 14/M06 A3022 RMK A01 T01391059  RH  025%=      5-min Rain = 0
KLA1 130414Z 07007KT 14/M06 A3022 RMK A01 T01401058  RH  025%=      5-min Rain = 0
KLA1 130415Z 08006KT 14/M06 A3022 RMK A01 T01401058  RH  025%=      5-min Rain = 0
KLA1 130416Z 06008KT 14/M06 A3022 RMK A01 T01401058  RH  025%=      5-min Rain = 0
KLA1 130417Z 08007KT 14/M06 A3022 RMK A01 T01401058  RH  025%=      5-min Rain = 0
KLA1 130418Z 07007KT 14/M06 A3023 RMK A01 T01401058  RH  025%=      5-min Rain = 0
KLA1 130419Z 08008KT 14/M06 A3023 RMK A01 T01391059  RH  025%=      5-min Rain = 0
KLA1 130420Z 07007KT 14/M06 A3023 RMK A01 T01391059  RH  025%=      5-min Rain = 0
KLA1 130421Z 08008KT 14/M06 A3022 RMK A01 T01381059  RH  025%=      5-min Rain = 0
KLA1 130422Z 07009KT 14/M06 A3022 RMK A01 T01381059  RH  025%=      5-min Rain = 0
KLA1 130423Z 07007KT 14/M06 A3022 RMK A01 T01381059  RH  025%=      5-min Rain = 0
KLA1 130424Z 07006KT 14/M06 A3022 RMK A01 T01391058  RH  025%=      5-min Rain = 0
KLA1 130425Z 08007KT 14/M06 A3022 RMK A01 T01381058  RH  025%=      5-min Rain = 0
KLA1 130426Z 08006KT 14/M06 A3022 RMK A01 T01391058  RH  025%=      5-min Rain = 0
KLA1 130427Z 07005KT 14/M06 A3022 RMK A01 T01381058  RH  025%=      5-min Rain = 0
KLA1 130428Z 08005KT 14/M06 A3022 RMK A01 T01381058  RH  025%=      5-min Rain = 0
KLA1 130429Z 08006KT 14/M06 A3022 RMK A01 T01381058  RH  025%=      5-min Rain = 0
KLA1 130430Z 08005KT 14/M06 A3022 RMK A01 T01371058  RH  025%=      5-min Rain = 0
KLA1 130431Z 08007KT 14/M06 A3022 RMK A01 T01371058  RH  025%=      5-min Rain = 0
KLA1 130432Z 08006KT 14/M06 A3022 RMK A01 T01371058  RH  025%=      5-min Rain = 0
KLA1 130433Z 08006KT 14/M06 A3022 RMK A01 T01371058  RH  025%=      5-min Rain = 0
KLA1 130434Z 08004KT 14/M06 A3022 RMK A01 T01371058  RH  025%=      5-min Rain = 0
KLA1 130435Z 08003KT 14/M06 A3022 RMK A01 T01371058  RH  025%=      5-min Rain = 0
KLA1 130436Z 07004KT 14/M06 A3022 RMK A01 T01371057  RH  025%=      5-min Rain = 0
KLA1 130437Z 10005KT 14/M06 A3022 RMK A01 T01371057  RH  025%=      5-min Rain = 0
KLA1 130438Z 08003KT 14/M06 A3022 RMK A01 T01371058  RH  025%=      5-min Rain = 0
KLA1 130439Z 07004KT 14/M06 A3022 RMK A01 T01371058  RH  025%=      5-min Rain = 0
KLA1 130440Z 07003KT 14/M06 A3022 RMK A01 T01371057  RH  025%=      5-min Rain = 0
KLA1 130441Z 10002KT 14/M06 A3022 RMK A01 T01371057  RH  026%=      5-min Rain = 0
KLA1 130442Z 12003KT 14/M06 A3022 RMK A01 T01361058  RH  026%=      5-min Rain = 0
KLA1 130443Z 13004KT 14/M06 A3022 RMK A01 T01361057  RH  026%=      5-min Rain = 0
KLA1 130444Z 10004KT 14/M06 A3022 RMK A01 T01361057  RH  026%=      5-min Rain = 0
KLA1 130445Z 15003KT 14/M06 A3022 RMK A01 T01361057  RH  026%=      5-min Rain = 0
KLA1 130446Z 18003KT 14/M06 A3022 RMK A01 T01361057  RH  026%=      5-min Rain = 0
KLA1 130447Z 19004KT 13/M06 A3022 RMK A01 T01341059  RH  026%=      5-min Rain = 0
KLA1 130448Z 18004KT 13/M06 A3023 RMK A01 T01321059  RH  026%=      5-min Rain = 0
KLA1 130449Z 18004KT 13/M06 A3023 RMK A01 T01311059  RH  026%=      5-min Rain = 0
KLA1 130450Z 18005KT 13/M06 A3023 RMK A01 T01301058  RH  026%=      5-min Rain = 0
KLA1 130451Z 17005KT 13/M06 A3023 RMK A01 T01291058  RH  027%=      5-min Rain = 0
KLA1 130452Z 18005KT 13/M06 A3023 RMK A01 T01301057  RH  027%=      5-min Rain = 0
KLA1 130453Z 17006KT 13/M06 A3023 RMK A01 T01311057  RH  027%=      5-min Rain = 0
KLA1 130454Z 16006KT 13/M06 A3023 RMK A01 T01321057  RH  026%=      5-min Rain = 0
KLA1 130455Z 15006KT 13/M06 A3023 RMK A01 T01331056  RH  026%=      5-min Rain = 0
KLA1 130456Z 16005KT 13/M06 A3023 RMK A01 T01331057  RH  026%=      5-min Rain = 0
KLA1 130457Z 15005KT 13/M06 A3023 RMK A01 T01341057  RH  026%=      5-min Rain = 0
KLA1 130458Z 15005KT 13/M06 A3023 RMK A01 T01331057  RH  026%=      5-min Rain = 0
KLA1 130459Z 13005KT 13/M06 A3023 RMK A01 T01321057  RH  026%=      5-min Rain = 0

Page generated in 0.1312 seconds.